<?xml version='1.0' encoding='UTF-8'?><gpx version="1.1" creator="JPX - https://github.com/jenetics/jpx" xmlns="http://www.topografix.com/GPX/1/1"><trk><trkseg><trkpt lat="47.65958865749494" lon="0.9515096077370457"><ele>124.99999999999999</ele><time>2026-04-19T12:28:21Z</time></trkpt><trkpt lat="47.65962346689667" lon="0.9513493967856166"><ele>125.0</ele><time>2026-04-19T12:28:23Z</time></trkpt><trkpt lat="47.65965228712496" lon="0.9512134976046943"><ele>125.0</ele><time>2026-04-19T12:28:24Z</time></trkpt><trkpt lat="47.65968063960108" lon="0.9510879523411784"><ele>125.0</ele><time>2026-04-19T12:28:25Z</time></trkpt><trkpt lat="47.65970451428344" lon="0.9509792276484885"><ele>124.99999999999999</ele><time>2026-04-19T12:28:26Z</time></trkpt><trkpt lat="47.65971607811461" lon="0.9508736319229895"><ele>125.0</ele><time>2026-04-19T12:28:27Z</time></trkpt><trkpt lat="47.65971249072607" lon="0.9507367240160954"><ele>124.0</ele><time>2026-04-19T12:28:28Z</time></trkpt><trkpt lat="47.65969176088572" lon="0.9505311759082463"><ele>123.0</ele><time>2026-04-19T12:28:29Z</time></trkpt><trkpt lat="47.65967233852477" lon="0.9502988041615341"><ele>122.0</ele><time>2026-04-19T12:28:30Z</time></trkpt><trkpt lat="47.659662834108175" lon="0.9501209575734635"><ele>121.0</ele><time>2026-04-19T12:28:31Z</time></trkpt><trkpt lat="47.65963316263481" lon="0.9499683493100992"><ele>121.5</ele><time>2026-04-19T12:28:32Z</time></trkpt><trkpt lat="47.65958028596678" lon="0.9498258538940922"><ele>122.0</ele><time>2026-04-19T12:28:33Z</time></trkpt><trkpt lat="47.659512896005026" lon="0.9496533492532486"><ele>122.5</ele><time>2026-04-19T12:28:34Z</time></trkpt><trkpt lat="47.65945504213349" lon="0.9494128817693624"><ele>123.0</ele><time>2026-04-19T12:28:35Z</time></trkpt><trkpt lat="47.65939960204565" lon="0.9492306283720656"><ele>122.25</ele><time>2026-04-19T12:28:36Z</time></trkpt><trkpt lat="47.6593527656275" lon="0.9490473294811486"><ele>121.5</ele><time>2026-04-19T12:28:37Z</time></trkpt><trkpt lat="47.659328855732845" lon="0.9488772150644692"><ele>120.75</ele><time>2026-04-19T12:28:38Z</time></trkpt><trkpt lat="47.65930257032329" lon="0.9487062828584912"><ele>120.0</ele><time>2026-04-19T12:28:39Z</time></trkpt><trkpt lat="47.659261494430524" lon="0.9485223476504311"><ele>119.25</ele><time>2026-04-19T12:28:40Z</time></trkpt><trkpt lat="47.659223083855174" lon="0.9483415391796272"><ele>118.5</ele><time>2026-04-19T12:28:41Z</time></trkpt><trkpt lat="47.65919431321963" lon="0.9481640007440852"><ele>117.75</ele><time>2026-04-19T12:28:42Z</time></trkpt><trkpt lat="47.659164301002605" lon="0.9479952961968525"><ele>117.0</ele><time>2026-04-19T12:28:43Z</time></trkpt><trkpt lat="47.65914003689779" lon="0.9478616239184519"><ele>117.0</ele><time>2026-04-19T12:28:44Z</time></trkpt><trkpt lat="47.659114427343134" lon="0.9477134163703282"><ele>117.0</ele><time>2026-04-19T12:28:45Z</time></trkpt><trkpt lat="47.65909373667856" lon="0.9475730247523212"><ele>117.0</ele><time>2026-04-19T12:28:46Z</time></trkpt><trkpt lat="47.65907742670798" lon="0.9474553138441606"><ele>117.0</ele><time>2026-04-19T12:28:47Z</time></trkpt><trkpt lat="47.65905812004375" lon="0.9473549846581173"><ele>117.0</ele><time>2026-04-19T12:28:48Z</time></trkpt><trkpt lat="47.659001876768876" lon="0.947259142238146"><ele>117.0</ele><time>2026-04-19T12:28:49Z</time></trkpt><trkpt lat="47.65891453614529" lon="0.9471019600538213"><ele>116.39999999999999</ele><time>2026-04-19T12:28:50Z</time></trkpt><trkpt lat="47.65884705642492" lon="0.9469470618801247"><ele>115.79999999999998</ele><time>2026-04-19T12:28:51Z</time></trkpt><trkpt lat="47.65878787372706" lon="0.9468038237145202"><ele>115.2</ele><time>2026-04-19T12:28:52Z</time></trkpt><trkpt lat="47.6587382452738" lon="0.9466636520161094"><ele>114.6</ele><time>2026-04-19T12:28:53Z</time></trkpt><trkpt lat="47.65869012311849" lon="0.9465294391737916"><ele>114.0</ele><time>2026-04-19T12:28:54Z</time></trkpt><trkpt lat="47.658626531886405" lon="0.9463644787491401"><ele>115.25</ele><time>2026-04-19T12:28:55Z</time></trkpt><trkpt lat="47.65856403431955" lon="0.9462010744466789"><ele>116.5</ele><time>2026-04-19T12:28:56Z</time></trkpt><trkpt lat="47.658505082373104" lon="0.9460744046451566"><ele>117.75</ele><time>2026-04-19T12:28:57Z</time></trkpt><trkpt lat="47.65843235963304" lon="0.9459145038744908"><ele>119.0</ele><time>2026-04-19T12:28:58Z</time></trkpt><trkpt lat="47.65835122102503" lon="0.9457609974571803"><ele>116.5</ele><time>2026-04-19T12:28:59Z</time></trkpt><trkpt lat="47.65824649516203" lon="0.945575068908372"><ele>114.0</ele><time>2026-04-19T12:29:00.001Z</time></trkpt><trkpt lat="47.6581584711207" lon="0.9454074938281791"><ele>111.5</ele><time>2026-04-19T12:29:01.001Z</time></trkpt><trkpt lat="47.658084744917126" lon="0.9452723862215658"><ele>109.0</ele><time>2026-04-19T12:29:02.001Z</time></trkpt><trkpt lat="47.65800164909995" lon="0.9451534254976691"><ele>109.0</ele><time>2026-04-19T12:29:03.001Z</time></trkpt><trkpt lat="47.65790975161812" lon="0.9450355132007826"><ele>109.0</ele><time>2026-04-19T12:29:04.001Z</time></trkpt><trkpt lat="47.65781702338031" lon="0.9449223371984239"><ele>109.0</ele><time>2026-04-19T12:29:05.001Z</time></trkpt><trkpt lat="47.657729765046795" lon="0.9448306094908016"><ele>109.0</ele><time>2026-04-19T12:29:06.001Z</time></trkpt><trkpt lat="47.657631738329655" lon="0.9447369665836672"><ele>109.0</ele><time>2026-04-19T12:29:07.001Z</time></trkpt><trkpt lat="47.65751845949535" lon="0.944645551220847"><ele>109.0</ele><time>2026-04-19T12:29:08.001Z</time></trkpt><trkpt lat="47.657410746933486" lon="0.9445602611578743"><ele>109.0</ele><time>2026-04-19T12:29:09.001Z</time></trkpt><trkpt lat="47.65731593689255" lon="0.9444911156758299"><ele>109.0</ele><time>2026-04-19T12:29:10.001Z</time></trkpt><trkpt lat="47.65723385088064" lon="0.9444191196210155"><ele>109.0</ele><time>2026-04-19T12:29:11.001Z</time></trkpt><trkpt lat="47.657145272399546" lon="0.9443368888284"><ele>109.0</ele><time>2026-04-19T12:29:12Z</time></trkpt><trkpt lat="47.657024080495574" lon="0.9442255729031692"><ele>109.0</ele><time>2026-04-19T12:29:13Z</time></trkpt><trkpt lat="47.65688380004659" lon="0.9440932286159849"><ele>109.0</ele><time>2026-04-19T12:29:14Z</time></trkpt><trkpt lat="47.65672728220385" lon="0.9439507461088466"><ele>109.5</ele><time>2026-04-19T12:29:15Z</time></trkpt><trkpt lat="47.656584200683774" lon="0.9438269769719483"><ele>110.0</ele><time>2026-04-19T12:29:16Z</time></trkpt><trkpt lat="47.6564628213248" lon="0.9437221572933188"><ele>110.5</ele><time>2026-04-19T12:29:17Z</time></trkpt><trkpt lat="47.656357327137826" lon="0.9436188945327606"><ele>111.0</ele><time>2026-04-19T12:29:18Z</time></trkpt><trkpt lat="47.65626551918012" lon="0.9435253938956374"><ele>111.0</ele><time>2026-04-19T12:29:19Z</time></trkpt><trkpt lat="47.656203293397375" lon="0.9434219138698607"><ele>111.0</ele><time>2026-04-19T12:29:20Z</time></trkpt><trkpt lat="47.65614402522699" lon="0.943320981211689"><ele>111.0</ele><time>2026-04-19T12:29:21Z</time></trkpt><trkpt lat="47.65607171448864" lon="0.9432217822137635"><ele>111.0</ele><time>2026-04-19T12:29:22Z</time></trkpt><trkpt lat="47.656008410142405" lon="0.9431255669758825"><ele>111.0</ele><time>2026-04-19T12:29:23Z</time></trkpt><trkpt lat="47.65595617905743" lon="0.9429897442543842"><ele>111.0</ele><time>2026-04-19T12:29:24Z</time></trkpt><trkpt lat="47.65589470909873" lon="0.9428086747858816"><ele>111.0</ele><time>2026-04-19T12:29:25Z</time></trkpt><trkpt lat="47.65583757349324" lon="0.9426612104872443"><ele>111.0</ele><time>2026-04-19T12:29:26Z</time></trkpt><trkpt lat="47.65578646620978" lon="0.94253622734811"><ele>111.0</ele><time>2026-04-19T12:29:27Z</time></trkpt><trkpt lat="47.65572522369721" lon="0.9424084747486061"><ele>111.0</ele><time>2026-04-19T12:29:28Z</time></trkpt><trkpt lat="47.65566995565394" lon="0.9422931883833908"><ele>111.0</ele><time>2026-04-19T12:29:29Z</time></trkpt><trkpt lat="47.655630374054105" lon="0.9422090439990003"><ele>111.0</ele><time>2026-04-19T12:29:30Z</time></trkpt><trkpt lat="47.655580529779094" lon="0.9420945050100084"><ele>111.0</ele><time>2026-04-19T12:29:31Z</time></trkpt><trkpt lat="47.65551074774239" lon="0.9419627698884994"><ele>111.0</ele><time>2026-04-19T12:29:32Z</time></trkpt><trkpt lat="47.65545311817271" lon="0.9418504462782178"><ele>111.0</ele><time>2026-04-19T12:29:33Z</time></trkpt><trkpt lat="47.655405757989364" lon="0.9417367050807905"><ele>111.0</ele><time>2026-04-19T12:29:34Z</time></trkpt><trkpt lat="47.65535857150206" lon="0.9415947896803085"><ele>111.0</ele><time>2026-04-19T12:29:35Z</time></trkpt><trkpt lat="47.6553210649886" lon="0.9414579694650367"><ele>111.0</ele><time>2026-04-19T12:29:36Z</time></trkpt><trkpt lat="47.65528712046825" lon="0.9413116626741801"><ele>111.0</ele><time>2026-04-19T12:29:37Z</time></trkpt><trkpt lat="47.65524766734422" lon="0.9411549386087715"><ele>112.0</ele><time>2026-04-19T12:29:38Z</time></trkpt><trkpt lat="47.65523366796779" lon="0.9410117373899337"><ele>113.0</ele><time>2026-04-19T12:29:39Z</time></trkpt><trkpt lat="47.65521332828614" lon="0.9408483954543181"><ele>114.0</ele><time>2026-04-19T12:29:40Z</time></trkpt><trkpt lat="47.655199648402885" lon="0.9406718984862894"><ele>115.0</ele><time>2026-04-19T12:29:41Z</time></trkpt><trkpt lat="47.65519161610169" lon="0.9405233801252609"><ele>116.0</ele><time>2026-04-19T12:29:42Z</time></trkpt><trkpt lat="47.65518881153737" lon="0.9403862857770543"><ele>116.0</ele><time>2026-04-19T12:29:43Z</time></trkpt><trkpt lat="47.655196264951115" lon="0.9402359794347718"><ele>116.0</ele><time>2026-04-19T12:29:44Z</time></trkpt><trkpt lat="47.65519835035938" lon="0.9400872879600131"><ele>116.0</ele><time>2026-04-19T12:29:45Z</time></trkpt><trkpt lat="47.65520102673552" lon="0.9399489811131182"><ele>116.0</ele><time>2026-04-19T12:29:46Z</time></trkpt><trkpt lat="47.65519795125667" lon="0.9398335516724312"><ele>116.0</ele><time>2026-04-19T12:29:47Z</time></trkpt><trkpt lat="47.65518030793943" lon="0.9397170619740607"><ele>115.33333333333333</ele><time>2026-04-19T12:29:48Z</time></trkpt><trkpt lat="47.6551558071502" lon="0.9395684258221352"><ele>114.66666666666666</ele><time>2026-04-19T12:29:49Z</time></trkpt><trkpt lat="47.655135300210574" lon="0.9394520918667271"><ele>114.0</ele><time>2026-04-19T12:29:50Z</time></trkpt><trkpt lat="47.65512919617731" lon="0.9393140761676507"><ele>113.33333333333334</ele><time>2026-04-19T12:29:52Z</time></trkpt><trkpt lat="47.65517055855235" lon="0.9392370006081571"><ele>112.66666666666667</ele><time>2026-04-19T12:29:56Z</time></trkpt><trkpt lat="47.65508410372616" lon="0.939155067766662"><ele>112.0</ele><time>2026-04-19T12:30:00Z</time></trkpt><trkpt lat="47.6549996790445" lon="0.9391321752614011"><ele>111.25</ele><time>2026-04-19T12:30:01Z</time></trkpt><trkpt lat="47.65489093577312" lon="0.9390915198311696"><ele>110.5</ele><time>2026-04-19T12:30:02Z</time></trkpt><trkpt lat="47.654764094434306" lon="0.9389985670301351"><ele>109.75</ele><time>2026-04-19T12:30:03Z</time></trkpt><trkpt lat="47.65462617748201" lon="0.9389347415349112"><ele>109.0</ele><time>2026-04-19T12:30:04Z</time></trkpt><trkpt lat="47.65447437421302" lon="0.938863905779611"><ele>108.66666666666667</ele><time>2026-04-19T12:30:05Z</time></trkpt><trkpt lat="47.65429185431798" lon="0.9387758742682055"><ele>108.33333333333334</ele><time>2026-04-19T12:30:06Z</time></trkpt><trkpt lat="47.65412513084703" lon="0.938706658225595"><ele>108.0</ele><time>2026-04-19T12:30:07Z</time></trkpt><trkpt lat="47.65396563501727" lon="0.9387037974560455"><ele>108.0</ele><time>2026-04-19T12:30:08Z</time></trkpt><trkpt lat="47.65382052674857" lon="0.9387136163808323"><ele>108.0</ele><time>2026-04-19T12:30:09Z</time></trkpt><trkpt lat="47.65368102247128" lon="0.9387566156675314"><ele>108.0</ele><time>2026-04-19T12:30:10Z</time></trkpt><trkpt lat="47.65355288828746" lon="0.9388351035640715"><ele>108.0</ele><time>2026-04-19T12:30:11Z</time></trkpt><trkpt lat="47.65343815621558" lon="0.9389405674264237"><ele>108.33333333333334</ele><time>2026-04-19T12:30:12Z</time></trkpt><trkpt lat="47.653336546040116" lon="0.939067783394616"><ele>108.66666666666667</ele><time>2026-04-19T12:30:13Z</time></trkpt><trkpt lat="47.653225490948266" lon="0.9392209495219362"><ele>109.0</ele><time>2026-04-19T12:30:14Z</time></trkpt><trkpt lat="47.65309538106587" lon="0.9394083370202576"><ele>109.0</ele><time>2026-04-19T12:30:15Z</time></trkpt><trkpt lat="47.65294585440025" lon="0.9396179068414702"><ele>109.0</ele><time>2026-04-19T12:30:16Z</time></trkpt><trkpt lat="47.65279249060116" lon="0.939841213211936"><ele>109.0</ele><time>2026-04-19T12:30:17Z</time></trkpt><trkpt lat="47.65262887343409" lon="0.9400838847313818"><ele>108.66666666666667</ele><time>2026-04-19T12:30:18Z</time></trkpt><trkpt lat="47.65247849680228" lon="0.9403000620803549"><ele>108.33333333333334</ele><time>2026-04-19T12:30:19Z</time></trkpt><trkpt lat="47.65234574694021" lon="0.9404923420725896"><ele>108.0</ele><time>2026-04-19T12:30:20Z</time></trkpt><trkpt lat="47.65222252673126" lon="0.940668474543304"><ele>108.0</ele><time>2026-04-19T12:30:21Z</time></trkpt><trkpt lat="47.652107601722236" lon="0.9408323090305996"><ele>108.0</ele><time>2026-04-19T12:30:22Z</time></trkpt><trkpt lat="47.65199781551729" lon="0.9409956221719825"><ele>108.0</ele><time>2026-04-19T12:30:23Z</time></trkpt><trkpt lat="47.651862829308286" lon="0.9411882033683908"><ele>108.0</ele><time>2026-04-19T12:30:24Z</time></trkpt><trkpt lat="47.65170751445824" lon="0.9414051643000954"><ele>108.0</ele><time>2026-04-19T12:30:25Z</time></trkpt><trkpt lat="47.65153354823561" lon="0.9416231195882654"><ele>108.0</ele><time>2026-04-19T12:30:26Z</time></trkpt><trkpt lat="47.6513640805857" lon="0.9417720508405112"><ele>108.25</ele><time>2026-04-19T12:30:27Z</time></trkpt><trkpt lat="47.651243511185605" lon="0.9418841016289154"><ele>108.5</ele><time>2026-04-19T12:30:28Z</time></trkpt><trkpt lat="47.65110564428075" lon="0.9420102781944448"><ele>108.75</ele><time>2026-04-19T12:30:29Z</time></trkpt><trkpt lat="47.65100236774877" lon="0.9420907125617694"><ele>109.0</ele><time>2026-04-19T12:30:30Z</time></trkpt><trkpt lat="47.650908463746546" lon="0.9421486677393547"><ele>109.0</ele><time>2026-04-19T12:30:31Z</time></trkpt><trkpt lat="47.650789067006635" lon="0.9422076163626445"><ele>109.0</ele><time>2026-04-19T12:30:32Z</time></trkpt><trkpt lat="47.65066086433493" lon="0.9422188417071246"><ele>109.0</ele><time>2026-04-19T12:30:33Z</time></trkpt><trkpt lat="47.65053237502447" lon="0.9421935404061301"><ele>109.0</ele><time>2026-04-19T12:30:34Z</time></trkpt><trkpt lat="47.6503796419088" lon="0.942118079695056"><ele>110.0</ele><time>2026-04-19T12:30:35Z</time></trkpt><trkpt lat="47.6502261696344" lon="0.9420924250094176"><ele>111.0</ele><time>2026-04-19T12:30:36Z</time></trkpt><trkpt lat="47.65008589011676" lon="0.9421165877638796"><ele>112.0</ele><time>2026-04-19T12:30:37Z</time></trkpt><trkpt lat="47.649956126603726" lon="0.9420958454059636"><ele>113.0</ele><time>2026-04-19T12:30:38Z</time></trkpt><trkpt lat="47.64984473566434" lon="0.9419935645912842"><ele>113.0</ele><time>2026-04-19T12:30:39Z</time></trkpt><trkpt lat="47.649698101823" lon="0.9419368809139391"><ele>113.0</ele><time>2026-04-19T12:30:40Z</time></trkpt><trkpt lat="47.64958895403536" lon="0.9418472424983907"><ele>113.0</ele><time>2026-04-19T12:30:41Z</time></trkpt><trkpt lat="47.649514801895926" lon="0.9417406611858087"><ele>113.0</ele><time>2026-04-19T12:30:42Z</time></trkpt><trkpt lat="47.649442547800604" lon="0.9416903590570844"><ele>114.0</ele><time>2026-04-19T12:30:43Z</time></trkpt><trkpt lat="47.64939690269611" lon="0.941569634040261"><ele>115.0</ele><time>2026-04-19T12:30:44Z</time></trkpt><trkpt lat="47.64941173353492" lon="0.9413796993975743"><ele>116.0</ele><time>2026-04-19T12:30:45Z</time></trkpt><trkpt lat="47.64938575305214" lon="0.9411686450492921"><ele>117.0</ele><time>2026-04-19T12:30:46Z</time></trkpt><trkpt lat="47.64938059265094" lon="0.9409344374936299"><ele>116.75</ele><time>2026-04-19T12:30:47Z</time></trkpt><trkpt lat="47.649389171566646" lon="0.9407266300977444"><ele>116.5</ele><time>2026-04-19T12:30:48Z</time></trkpt><trkpt lat="47.649395039717454" lon="0.9405227775483743"><ele>116.25</ele><time>2026-04-19T12:30:49Z</time></trkpt><trkpt lat="47.64933006665444" lon="0.9403153868602151"><ele>116.0</ele><time>2026-04-19T12:30:50Z</time></trkpt><trkpt lat="47.649255835509194" lon="0.9401059370351021"><ele>115.33333333333333</ele><time>2026-04-19T12:30:51Z</time></trkpt><trkpt lat="47.64914972237759" lon="0.9399113904246422"><ele>114.66666666666666</ele><time>2026-04-19T12:30:52Z</time></trkpt><trkpt lat="47.649045657412444" lon="0.9397214492256272"><ele>114.0</ele><time>2026-04-19T12:30:53Z</time></trkpt><trkpt lat="47.64892234749636" lon="0.9395642614075747"><ele>114.0</ele><time>2026-04-19T12:30:54Z</time></trkpt><trkpt lat="47.6487814065553" lon="0.9394338283756424"><ele>114.0</ele><time>2026-04-19T12:30:55Z</time></trkpt><trkpt lat="47.64863939482633" lon="0.939319633522425"><ele>114.0</ele><time>2026-04-19T12:30:56Z</time></trkpt><trkpt lat="47.64848767306317" lon="0.9392206910672339"><ele>115.33333333333334</ele><time>2026-04-19T12:30:57Z</time></trkpt><trkpt lat="47.648340101484884" lon="0.9391001083008927"><ele>116.66666666666667</ele><time>2026-04-19T12:30:58Z</time></trkpt><trkpt lat="47.64820124343259" lon="0.9389326407432893"><ele>118.0</ele><time>2026-04-19T12:30:59Z</time></trkpt><trkpt lat="47.648049255224365" lon="0.9387660645847103"><ele>118.0</ele><time>2026-04-19T12:31:00Z</time></trkpt><trkpt lat="47.647865638738615" lon="0.9385898960510834"><ele>118.0</ele><time>2026-04-19T12:31:01Z</time></trkpt><trkpt lat="47.64767437307784" lon="0.9383815669668624"><ele>119.0</ele><time>2026-04-19T12:31:02Z</time></trkpt><trkpt lat="47.64746769707944" lon="0.9381330715725327"><ele>120.0</ele><time>2026-04-19T12:31:03Z</time></trkpt><trkpt lat="47.64724363328386" lon="0.9378981989779889"><ele>120.0</ele><time>2026-04-19T12:31:04Z</time></trkpt><trkpt lat="47.64700896491341" lon="0.9376926399082889"><ele>120.0</ele><time>2026-04-19T12:31:05.001Z</time></trkpt><trkpt lat="47.64680444134971" lon="0.9374799930750232"><ele>119.66666666666666</ele><time>2026-04-19T12:31:06.001Z</time></trkpt><trkpt lat="47.646619970401005" lon="0.937297650640163"><ele>119.33333333333333</ele><time>2026-04-19T12:31:07.001Z</time></trkpt><trkpt lat="47.64644940836572" lon="0.93712195317715"><ele>119.0</ele><time>2026-04-19T12:31:08.001Z</time></trkpt><trkpt lat="47.64630281321369" lon="0.9369256419385348"><ele>119.0</ele><time>2026-04-19T12:31:09Z</time></trkpt><trkpt lat="47.64616627741738" lon="0.9367459055892153"><ele>119.0</ele><time>2026-04-19T12:31:10Z</time></trkpt><trkpt lat="47.646033090084266" lon="0.9365647987786435"><ele>119.0</ele><time>2026-04-19T12:31:11.001Z</time></trkpt><trkpt lat="47.64589577764693" lon="0.9364105244007339"><ele>118.33333333333333</ele><time>2026-04-19T12:31:12.001Z</time></trkpt><trkpt lat="47.645781280688134" lon="0.936231526391091"><ele>117.66666666666666</ele><time>2026-04-19T12:31:13.001Z</time></trkpt><trkpt lat="47.64565960660074" lon="0.9360300865970146"><ele>117.0</ele><time>2026-04-19T12:31:14.001Z</time></trkpt><trkpt lat="47.64554412885894" lon="0.9358255198018515"><ele>116.75</ele><time>2026-04-19T12:31:15.001Z</time></trkpt><trkpt lat="47.645465978069524" lon="0.935615875529589"><ele>116.5</ele><time>2026-04-19T12:31:16.001Z</time></trkpt><trkpt lat="47.645388826586576" lon="0.9354570338962098"><ele>116.25</ele><time>2026-04-19T12:31:17Z</time></trkpt><trkpt lat="47.6453228316087" lon="0.9353138270066871"><ele>116.0</ele><time>2026-04-19T12:31:18Z</time></trkpt><trkpt lat="47.645271485048546" lon="0.9351908123024548"><ele>115.99999999999999</ele><time>2026-04-19T12:31:19Z</time></trkpt><trkpt lat="47.64522415610172" lon="0.9350604520369546"><ele>116.0</ele><time>2026-04-19T12:31:20Z</time></trkpt><trkpt lat="47.64519036887314" lon="0.9349312185845637"><ele>116.0</ele><time>2026-04-19T12:31:21Z</time></trkpt><trkpt lat="47.645175295550914" lon="0.934814124758175"><ele>116.0</ele><time>2026-04-19T12:31:22Z</time></trkpt><trkpt lat="47.64517018105725" lon="0.9347112867981731"><ele>115.99999999999999</ele><time>2026-04-19T12:31:23Z</time></trkpt><trkpt lat="47.645171838892814" lon="0.9346143925668231"><ele>116.0</ele><time>2026-04-19T12:31:24Z</time></trkpt><trkpt lat="47.64518027425694" lon="0.9343352093035865"><ele>115.25</ele><time>2026-04-19T12:31:25Z</time></trkpt><trkpt lat="47.6451130676798" lon="0.9342256113811868"><ele>114.5</ele><time>2026-04-19T12:31:26Z</time></trkpt><trkpt lat="47.645024929194015" lon="0.9340691111757772"><ele>113.75</ele><time>2026-04-19T12:31:27Z</time></trkpt><trkpt lat="47.64495268725927" lon="0.9339341935905564"><ele>113.0</ele><time>2026-04-19T12:31:28Z</time></trkpt><trkpt lat="47.64486758758873" lon="0.9337683974192366"><ele>111.33333333333333</ele><time>2026-04-19T12:31:29Z</time></trkpt><trkpt lat="47.64475913083107" lon="0.9335495625507091"><ele>109.66666666666666</ele><time>2026-04-19T12:31:30Z</time></trkpt><trkpt lat="47.6446586302578" lon="0.9333467810014544"><ele>108.0</ele><time>2026-04-19T12:31:31Z</time></trkpt><trkpt lat="47.644580116460425" lon="0.9331883625074279"><ele>110.25</ele><time>2026-04-19T12:31:32Z</time></trkpt><trkpt lat="47.64439161518668" lon="0.9331988606627972"><ele>112.5</ele><time>2026-04-19T12:31:33Z</time></trkpt><trkpt lat="47.64435835353472" lon="0.9330674779627666"><ele>114.75</ele><time>2026-04-19T12:31:34Z</time></trkpt><trkpt lat="47.64431759205151" lon="0.9329514115275978"><ele>117.0</ele><time>2026-04-19T12:31:35Z</time></trkpt><trkpt lat="47.64426553038858" lon="0.9328444791434425"><ele>117.0</ele><time>2026-04-19T12:31:36Z</time></trkpt><trkpt lat="47.6442154232803" lon="0.9327115907609067"><ele>116.99999999999999</ele><time>2026-04-19T12:31:37Z</time></trkpt><trkpt lat="47.6441688397331" lon="0.93257263793315"><ele>116.99999999999999</ele><time>2026-04-19T12:31:38Z</time></trkpt><trkpt lat="47.644113674352624" lon="0.9324494219593362"><ele>117.0</ele><time>2026-04-19T12:31:39Z</time></trkpt><trkpt lat="47.64406369080266" lon="0.9323080175851135"><ele>117.0</ele><time>2026-04-19T12:31:40Z</time></trkpt><trkpt lat="47.6440092906357" lon="0.9321470192696221"><ele>116.5</ele><time>2026-04-19T12:31:41Z</time></trkpt><trkpt lat="47.643945701323325" lon="0.931960336865393"><ele>116.0</ele><time>2026-04-19T12:31:42Z</time></trkpt><trkpt lat="47.64388843716154" lon="0.9317941207905386"><ele>115.5</ele><time>2026-04-19T12:31:43Z</time></trkpt><trkpt lat="47.64382603342058" lon="0.9316397315712597"><ele>115.0</ele><time>2026-04-19T12:31:44Z</time></trkpt><trkpt lat="47.64374469339805" lon="0.9314549323277066"><ele>115.5</ele><time>2026-04-19T12:31:45Z</time></trkpt><trkpt lat="47.64366347444291" lon="0.9312468258588847"><ele>116.0</ele><time>2026-04-19T12:31:46Z</time></trkpt><trkpt lat="47.643597793809704" lon="0.931071060123037"><ele>116.5</ele><time>2026-04-19T12:31:47Z</time></trkpt><trkpt lat="47.643550759093486" lon="0.9309374659660724"><ele>117.0</ele><time>2026-04-19T12:31:48Z</time></trkpt><trkpt lat="47.64350182628501" lon="0.9308125027523085"><ele>117.0</ele><time>2026-04-19T12:31:49Z</time></trkpt><trkpt lat="47.64346193206123" lon="0.930706243976592"><ele>116.99999999999999</ele><time>2026-04-19T12:31:50Z</time></trkpt><trkpt lat="47.643398508153595" lon="0.930573615574827"><ele>116.99999999999999</ele><time>2026-04-19T12:31:51Z</time></trkpt><trkpt lat="47.64331972635989" lon="0.9304382291347479"><ele>117.0</ele><time>2026-04-19T12:31:52Z</time></trkpt><trkpt lat="47.64324756188024" lon="0.9303075887427511"><ele>117.0</ele><time>2026-04-19T12:31:53Z</time></trkpt><trkpt lat="47.6431734459173" lon="0.9301676403607264"><ele>116.0</ele><time>2026-04-19T12:31:54Z</time></trkpt><trkpt lat="47.64309276322234" lon="0.9300242489424645"><ele>115.0</ele><time>2026-04-19T12:31:55Z</time></trkpt><trkpt lat="47.64300973107352" lon="0.9298788418854375"><ele>114.0</ele><time>2026-04-19T12:31:56Z</time></trkpt><trkpt lat="47.64291870055078" lon="0.9297075029579955"><ele>113.0</ele><time>2026-04-19T12:31:57Z</time></trkpt><trkpt lat="47.64282217553467" lon="0.9295303383266342"><ele>112.75</ele><time>2026-04-19T12:31:58Z</time></trkpt><trkpt lat="47.64274524743174" lon="0.9293792141932901"><ele>112.5</ele><time>2026-04-19T12:31:59Z</time></trkpt><trkpt lat="47.642662544265185" lon="0.9292199383069586"><ele>112.25</ele><time>2026-04-19T12:32:00Z</time></trkpt><trkpt lat="47.64257364037485" lon="0.9290509231155157"><ele>112.0</ele><time>2026-04-19T12:32:01Z</time></trkpt><trkpt lat="47.64248312864878" lon="0.9288852498101624"><ele>111.25</ele><time>2026-04-19T12:32:02Z</time></trkpt><trkpt lat="47.64237285613095" lon="0.9287114522137541"><ele>110.5</ele><time>2026-04-19T12:32:03Z</time></trkpt><trkpt lat="47.642265884253696" lon="0.9285470332302689"><ele>109.75</ele><time>2026-04-19T12:32:04Z</time></trkpt><trkpt lat="47.64218728435835" lon="0.9284034665386446"><ele>109.0</ele><time>2026-04-19T12:32:05Z</time></trkpt><trkpt lat="47.64211194471989" lon="0.9282705707497693"><ele>108.25</ele><time>2026-04-19T12:32:06Z</time></trkpt><trkpt lat="47.64204911064016" lon="0.9281449743213184"><ele>107.5</ele><time>2026-04-19T12:32:07Z</time></trkpt><trkpt lat="47.641971561851534" lon="0.9279992572056689"><ele>106.75</ele><time>2026-04-19T12:32:08Z</time></trkpt><trkpt lat="47.641884227853936" lon="0.9278555329407263"><ele>106.0</ele><time>2026-04-19T12:32:09Z</time></trkpt><trkpt lat="47.64181131454441" lon="0.9277309391912244"><ele>107.0</ele><time>2026-04-19T12:32:10Z</time></trkpt><trkpt lat="47.64173643056265" lon="0.9276047819146462"><ele>108.0</ele><time>2026-04-19T12:32:11Z</time></trkpt><trkpt lat="47.64165301796749" lon="0.9274830139508623"><ele>109.0</ele><time>2026-04-19T12:32:12Z</time></trkpt><trkpt lat="47.64156920423504" lon="0.9273628146279956"><ele>110.0</ele><time>2026-04-19T12:32:13Z</time></trkpt><trkpt lat="47.64148153399003" lon="0.9272277166706179"><ele>110.0</ele><time>2026-04-19T12:32:14Z</time></trkpt><trkpt lat="47.64138679078503" lon="0.9270688938554558"><ele>110.0</ele><time>2026-04-19T12:32:15Z</time></trkpt><trkpt lat="47.64130681626589" lon="0.9269147436811533"><ele>110.0</ele><time>2026-04-19T12:32:16Z</time></trkpt><trkpt lat="47.641237340180275" lon="0.9267629782099546"><ele>110.0</ele><time>2026-04-19T12:32:17Z</time></trkpt><trkpt lat="47.64116175414292" lon="0.9266211151538886"><ele>111.0</ele><time>2026-04-19T12:32:18Z</time></trkpt><trkpt lat="47.64109438809044" lon="0.9264719234875648"><ele>112.0</ele><time>2026-04-19T12:32:19Z</time></trkpt><trkpt lat="47.6410275531524" lon="0.9262787120903553"><ele>113.0</ele><time>2026-04-19T12:32:20Z</time></trkpt><trkpt lat="47.64095807990053" lon="0.9260851094773694"><ele>114.0</ele><time>2026-04-19T12:32:21Z</time></trkpt><trkpt lat="47.64089560777067" lon="0.9259193317967146"><ele>112.6</ele><time>2026-04-19T12:32:22Z</time></trkpt><trkpt lat="47.64084209403522" lon="0.9257702508496871"><ele>111.2</ele><time>2026-04-19T12:32:23Z</time></trkpt><trkpt lat="47.640780120584125" lon="0.9256433094631371"><ele>109.79999999999998</ele><time>2026-04-19T12:32:24Z</time></trkpt><trkpt lat="47.64071470511144" lon="0.9255520612704126"><ele>108.39999999999999</ele><time>2026-04-19T12:32:25Z</time></trkpt><trkpt lat="47.6406575141772" lon="0.925468364721531"><ele>107.0</ele><time>2026-04-19T12:32:26Z</time></trkpt><trkpt lat="47.64059118637138" lon="0.9253950043382408"><ele>107.0</ele><time>2026-04-19T12:32:28Z</time></trkpt><trkpt lat="47.64052195095929" lon="0.925516791617377"><ele>106.99999999999999</ele><time>2026-04-19T12:32:31Z</time></trkpt><trkpt lat="47.64045498557871" lon="0.9256464819928637"><ele>106.99999999999999</ele><time>2026-04-19T12:32:33Z</time></trkpt><trkpt lat="47.640371795173515" lon="0.9256683224332567"><ele>107.0</ele><time>2026-04-19T12:32:35Z</time></trkpt><trkpt lat="47.64027988442107" lon="0.9255568376833415"><ele>107.0</ele><time>2026-04-19T12:32:37Z</time></trkpt><trkpt lat="47.64021671196829" lon="0.9254530164957586"><ele>109.0</ele><time>2026-04-19T12:32:38Z</time></trkpt><trkpt lat="47.64013119429339" lon="0.9253057343485881"><ele>111.0</ele><time>2026-04-19T12:32:39Z</time></trkpt><trkpt lat="47.64004871420838" lon="0.9251566624775847"><ele>113.0</ele><time>2026-04-19T12:32:40Z</time></trkpt><trkpt lat="47.639962220879916" lon="0.9250342710899907"><ele>115.0</ele><time>2026-04-19T12:32:41Z</time></trkpt><trkpt lat="47.63987966435508" lon="0.924922865509909"><ele>115.00000000000001</ele><time>2026-04-19T12:32:42Z</time></trkpt><trkpt lat="47.639811019594106" lon="0.9248267617655119"><ele>115.0</ele><time>2026-04-19T12:32:43Z</time></trkpt><trkpt lat="47.639742526942754" lon="0.9247339511147681"><ele>115.0</ele><time>2026-04-19T12:32:44Z</time></trkpt><trkpt lat="47.63967351197632" lon="0.9246400130721258"><ele>115.0</ele><time>2026-04-19T12:32:45Z</time></trkpt><trkpt lat="47.63961605355318" lon="0.9245509894871297"><ele>115.00000000000001</ele><time>2026-04-19T12:32:46Z</time></trkpt><trkpt lat="47.63955643094527" lon="0.9244800806396513"><ele>115.0</ele><time>2026-04-19T12:32:47Z</time></trkpt><trkpt lat="47.63949986546601" lon="0.9244108179628907"><ele>117.0</ele><time>2026-04-19T12:32:48Z</time></trkpt><trkpt lat="47.6393825244007" lon="0.9243426306595541"><ele>119.0</ele><time>2026-04-19T12:32:50Z</time></trkpt><trkpt lat="47.63931188577044" lon="0.924349776665252"><ele>121.0</ele><time>2026-04-19T12:32:51Z</time></trkpt><trkpt lat="47.639213343258184" lon="0.9243868358522643"><ele>123.0</ele><time>2026-04-19T12:32:52Z</time></trkpt><trkpt lat="47.63909858400391" lon="0.9244229049468418"><ele>125.0</ele><time>2026-04-19T12:32:53Z</time></trkpt><trkpt lat="47.639020221985064" lon="0.9244552505598772"><ele>124.99999999999999</ele><time>2026-04-19T12:32:54Z</time></trkpt><trkpt lat="47.63893295511457" lon="0.9245148367145491"><ele>125.0</ele><time>2026-04-19T12:32:56Z</time></trkpt><trkpt lat="47.63904926424349" lon="0.9244328836290808"><ele>125.0</ele><time>2026-04-19T12:33:15.001Z</time></trkpt><trkpt lat="47.639129868156466" lon="0.9244062560126936"><ele>125.0</ele><time>2026-04-19T12:33:16.001Z</time></trkpt><trkpt lat="47.6391996650633" lon="0.924392128604971"><ele>124.99999999999999</ele><time>2026-04-19T12:33:17.001Z</time></trkpt><trkpt lat="47.639265180441306" lon="0.9243834187734722"><ele>125.0</ele><time>2026-04-19T12:33:18Z</time></trkpt><trkpt lat="47.639331314099195" lon="0.9243709715421585"><ele>125.0</ele><time>2026-04-19T12:33:19Z</time></trkpt><trkpt lat="47.639394816310094" lon="0.9243636450812946"><ele>125.0</ele><time>2026-04-19T12:33:20Z</time></trkpt><trkpt lat="47.63948624946539" lon="0.9244020887912623"><ele>125.0</ele><time>2026-04-19T12:33:22Z</time></trkpt><trkpt lat="47.639540533966944" lon="0.9244801907632841"><ele>125.0</ele><time>2026-04-19T12:33:23Z</time></trkpt><trkpt lat="47.63961232888918" lon="0.9245674817773503"><ele>125.0</ele><time>2026-04-19T12:33:24Z</time></trkpt><trkpt lat="47.63970034276907" lon="0.9246961959281961"><ele>123.99999999999999</ele><time>2026-04-19T12:33:25Z</time></trkpt><trkpt lat="47.6397552380671" lon="0.9247967815554882"><ele>123.0</ele><time>2026-04-19T12:33:26Z</time></trkpt><trkpt lat="47.63980346643137" lon="0.9248890265823182"><ele>122.0</ele><time>2026-04-19T12:33:27Z</time></trkpt><trkpt lat="47.639863504728865" lon="0.9249679572674073"><ele>121.0</ele><time>2026-04-19T12:33:28Z</time></trkpt><trkpt lat="47.63991493858673" lon="0.9250241106405318"><ele>119.99999999999999</ele><time>2026-04-19T12:33:29Z</time></trkpt><trkpt lat="47.639967122166546" lon="0.9251000841257364"><ele>119.0</ele><time>2026-04-19T12:33:30Z</time></trkpt><trkpt lat="47.640022755665775" lon="0.9251896401410966"><ele>118.99999999999999</ele><time>2026-04-19T12:33:31Z</time></trkpt><trkpt lat="47.64008554357972" lon="0.9252794945922792"><ele>119.0</ele><time>2026-04-19T12:33:32Z</time></trkpt><trkpt lat="47.64015083513613" lon="0.9253738235930609"><ele>119.0</ele><time>2026-04-19T12:33:33Z</time></trkpt><trkpt lat="47.64020486646457" lon="0.9254789692841682"><ele>119.0</ele><time>2026-04-19T12:33:34Z</time></trkpt><trkpt lat="47.64024941079262" lon="0.925559037590394"><ele>118.99999999999999</ele><time>2026-04-19T12:33:35Z</time></trkpt><trkpt lat="47.640327893253335" lon="0.9256651861088218"><ele>119.0</ele><time>2026-04-19T12:33:37Z</time></trkpt><trkpt lat="47.64040465810813" lon="0.9256812361406627"><ele>116.99999999999999</ele><time>2026-04-19T12:33:39Z</time></trkpt><trkpt lat="47.64048123954465" lon="0.9256009821414998"><ele>115.0</ele><time>2026-04-19T12:33:41Z</time></trkpt><trkpt lat="47.640509386951294" lon="0.925496382314846"><ele>113.0</ele><time>2026-04-19T12:33:42Z</time></trkpt><trkpt lat="47.64054894872475" lon="0.9253374190502643"><ele>111.0</ele><time>2026-04-19T12:33:44Z</time></trkpt><trkpt lat="47.64053841187659" lon="0.9252191175639208"><ele>108.99999999999999</ele><time>2026-04-19T12:33:46Z</time></trkpt><trkpt lat="47.64051764429579" lon="0.9251200187437686"><ele>107.0</ele><time>2026-04-19T12:33:47Z</time></trkpt><trkpt lat="47.640487814529195" lon="0.9250162414051052"><ele>106.39999999999999</ele><time>2026-04-19T12:33:48Z</time></trkpt><trkpt lat="47.640458571183174" lon="0.9249244001382118"><ele>105.79999999999998</ele><time>2026-04-19T12:33:49Z</time></trkpt><trkpt lat="47.64040303154911" lon="0.9248112711256092"><ele>105.2</ele><time>2026-04-19T12:33:51Z</time></trkpt><trkpt lat="47.640271955654995" lon="0.9246711065618083"><ele>104.6</ele><time>2026-04-19T12:34:19Z</time></trkpt><trkpt lat="47.64020501861876" lon="0.9245640801045177"><ele>104.0</ele><time>2026-04-19T12:34:21Z</time></trkpt><trkpt lat="47.6401385101149" lon="0.9244943110674794"><ele>104.66666666666666</ele><time>2026-04-19T12:34:23Z</time></trkpt><trkpt lat="47.640090485692525" lon="0.9243741868204821"><ele>105.33333333333333</ele><time>2026-04-19T12:34:25Z</time></trkpt><trkpt lat="47.64005392583788" lon="0.9242928777758697"><ele>106.0</ele><time>2026-04-19T12:34:26Z</time></trkpt><trkpt lat="47.640021328969404" lon="0.9242007601914172"><ele>106.66666666666666</ele><time>2026-04-19T12:34:27Z</time></trkpt><trkpt lat="47.63999259230491" lon="0.9241140095074395"><ele>107.33333333333333</ele><time>2026-04-19T12:34:28Z</time></trkpt><trkpt lat="47.6399422767415" lon="0.9239710865556703"><ele>108.0</ele><time>2026-04-19T12:34:30Z</time></trkpt><trkpt lat="47.6398875267071" lon="0.9238087898571344"><ele>108.0</ele><time>2026-04-19T12:34:32Z</time></trkpt><trkpt lat="47.639855235787394" lon="0.9237232865211049"><ele>108.0</ele><time>2026-04-19T12:34:33Z</time></trkpt><trkpt lat="47.63981459187119" lon="0.9235793618335936"><ele>108.0</ele><time>2026-04-19T12:34:35Z</time></trkpt><trkpt lat="47.63977443709097" lon="0.9234253286749204"><ele>108.0</ele><time>2026-04-19T12:34:37Z</time></trkpt><trkpt lat="47.63974091719198" lon="0.9233336641805462"><ele>108.0</ele><time>2026-04-19T12:34:38Z</time></trkpt><trkpt lat="47.639708997820456" lon="0.9232419747842457"><ele>108.0</ele><time>2026-04-19T12:34:39Z</time></trkpt><trkpt lat="47.6396760746075" lon="0.9231180655729959"><ele>107.5</ele><time>2026-04-19T12:34:40Z</time></trkpt><trkpt lat="47.63963854655064" lon="0.9229496187208358"><ele>107.0</ele><time>2026-04-19T12:34:41Z</time></trkpt><trkpt lat="47.63958658967905" lon="0.9227439694590496"><ele>106.5</ele><time>2026-04-19T12:34:42Z</time></trkpt><trkpt lat="47.639513972261355" lon="0.9225428591579987"><ele>106.0</ele><time>2026-04-19T12:34:43Z</time></trkpt><trkpt lat="47.63943534668708" lon="0.9223017272727675"><ele>106.25</ele><time>2026-04-19T12:34:44Z</time></trkpt><trkpt lat="47.63937172074452" lon="0.922098848574649"><ele>106.5</ele><time>2026-04-19T12:34:45Z</time></trkpt><trkpt lat="47.639286744609436" lon="0.9219330496926947"><ele>106.75</ele><time>2026-04-19T12:34:46Z</time></trkpt><trkpt lat="47.639202781785016" lon="0.9217931607817447"><ele>107.0</ele><time>2026-04-19T12:34:47Z</time></trkpt><trkpt lat="47.63912411870135" lon="0.9217134777083119"><ele>106.99999999999999</ele><time>2026-04-19T12:34:48Z</time></trkpt><trkpt lat="47.63903573569164" lon="0.9216699514841816"><ele>107.0</ele><time>2026-04-19T12:34:49Z</time></trkpt><trkpt lat="47.6389460609583" lon="0.9216360045485964"><ele>107.0</ele><time>2026-04-19T12:34:50Z</time></trkpt><trkpt lat="47.63887480207759" lon="0.9215776859718042"><ele>107.0</ele><time>2026-04-19T12:34:51Z</time></trkpt><trkpt lat="47.63881157285096" lon="0.9215067162088497"><ele>106.99999999999999</ele><time>2026-04-19T12:34:52Z</time></trkpt><trkpt lat="47.638747647275935" lon="0.9214481260329243"><ele>107.0</ele><time>2026-04-19T12:34:53Z</time></trkpt><trkpt lat="47.6386577731318" lon="0.921354674504509"><ele>107.0</ele><time>2026-04-19T12:34:55Z</time></trkpt><trkpt lat="47.63856760679368" lon="0.9212522376315176"><ele>106.99999999999999</ele><time>2026-04-19T12:34:57Z</time></trkpt><trkpt lat="47.63849677552888" lon="0.9211562030913921"><ele>106.99999999999999</ele><time>2026-04-19T12:34:59Z</time></trkpt><trkpt lat="47.638416433300584" lon="0.9210553831946215"><ele>107.0</ele><time>2026-04-19T12:35:01Z</time></trkpt><trkpt lat="47.638333678334426" lon="0.9209548317050815"><ele>107.0</ele><time>2026-04-19T12:35:03Z</time></trkpt><trkpt lat="47.638248754585796" lon="0.9208718027477243"><ele>107.0</ele><time>2026-04-19T12:35:05Z</time></trkpt><trkpt lat="47.63817801208968" lon="0.9207809630189995"><ele>106.99999999999999</ele><time>2026-04-19T12:35:07Z</time></trkpt><trkpt lat="47.6381022079363" lon="0.9206644455827212"><ele>106.99999999999999</ele><time>2026-04-19T12:35:09Z</time></trkpt><trkpt lat="47.6380248805263" lon="0.9205456621744664"><ele>107.0</ele><time>2026-04-19T12:35:11Z</time></trkpt><trkpt lat="47.63795720106688" lon="0.9204537376003087"><ele>107.0</ele><time>2026-04-19T12:35:13Z</time></trkpt><trkpt lat="47.63787146799571" lon="0.9203109004288131"><ele>106.99999999999999</ele><time>2026-04-19T12:35:15Z</time></trkpt><trkpt lat="47.63781857303284" lon="0.9202448896152137"><ele>107.0</ele><time>2026-04-19T12:35:16.001Z</time></trkpt><trkpt lat="47.63772104405221" lon="0.9201314954269326"><ele>107.0</ele><time>2026-04-19T12:35:18.001Z</time></trkpt><trkpt lat="47.63766631201042" lon="0.9200788349269547"><ele>107.0</ele><time>2026-04-19T12:35:19.001Z</time></trkpt><trkpt lat="47.63760677280056" lon="0.9200187705334314"><ele>106.99999999999999</ele><time>2026-04-19T12:35:20.001Z</time></trkpt><trkpt lat="47.63753614061258" lon="0.9199425758597237"><ele>107.0</ele><time>2026-04-19T12:35:21.001Z</time></trkpt><trkpt lat="47.63743939708063" lon="0.9198485522181267"><ele>106.83333333333333</ele><time>2026-04-19T12:35:22.001Z</time></trkpt><trkpt lat="47.63736216479084" lon="0.9197593198860761"><ele>106.66666666666666</ele><time>2026-04-19T12:35:23.001Z</time></trkpt><trkpt lat="47.63729001689548" lon="0.9197003927261531"><ele>106.5</ele><time>2026-04-19T12:35:24.001Z</time></trkpt><trkpt lat="47.637223602181614" lon="0.9196606411240028"><ele>106.33333333333334</ele><time>2026-04-19T12:35:25.001Z</time></trkpt><trkpt lat="47.63717364539" lon="0.9196037205035811"><ele>106.16666666666667</ele><time>2026-04-19T12:35:26.001Z</time></trkpt><trkpt lat="47.63711038656528" lon="0.9195069169693175"><ele>106.0</ele><time>2026-04-19T12:35:27.001Z</time></trkpt><trkpt lat="47.637004136353326" lon="0.9193477914414854"><ele>108.0</ele><time>2026-04-19T12:35:28.001Z</time></trkpt><trkpt lat="47.63690086972853" lon="0.9191924628233857"><ele>110.0</ele><time>2026-04-19T12:35:29.001Z</time></trkpt><trkpt lat="47.63680700938855" lon="0.9190559921580832"><ele>112.0</ele><time>2026-04-19T12:35:30.001Z</time></trkpt><trkpt lat="47.63671873562655" lon="0.9189388117649416"><ele>114.0</ele><time>2026-04-19T12:35:31Z</time></trkpt><trkpt lat="47.63663741463819" lon="0.9187889391069118"><ele>114.0</ele><time>2026-04-19T12:35:32Z</time></trkpt><trkpt lat="47.63655195550543" lon="0.9186423775599503"><ele>114.0</ele><time>2026-04-19T12:35:33Z</time></trkpt><trkpt lat="47.63645091989524" lon="0.918496305326035"><ele>114.0</ele><time>2026-04-19T12:35:34Z</time></trkpt><trkpt lat="47.6363482186273" lon="0.9183506848541572"><ele>114.0</ele><time>2026-04-19T12:35:35Z</time></trkpt><trkpt lat="47.636272012261095" lon="0.9182392758882799"><ele>113.80000000000001</ele><time>2026-04-19T12:35:36Z</time></trkpt><trkpt lat="47.636204348333244" lon="0.9181533958173377"><ele>113.60000000000001</ele><time>2026-04-19T12:35:37Z</time></trkpt><trkpt lat="47.6361342896646" lon="0.9180255354335229"><ele>113.4</ele><time>2026-04-19T12:35:39Z</time></trkpt><trkpt lat="47.63607802361483" lon="0.9179504456319125"><ele>113.2</ele><time>2026-04-19T12:35:41Z</time></trkpt><trkpt lat="47.63600740152374" lon="0.9180992914165442"><ele>113.0</ele><time>2026-04-19T12:35:46Z</time></trkpt><trkpt lat="47.63596345836027" lon="0.9181954562987742"><ele>113.28571428571429</ele><time>2026-04-19T12:35:47Z</time></trkpt><trkpt lat="47.63591787885725" lon="0.9182843623995632"><ele>113.57142857142856</ele><time>2026-04-19T12:35:48Z</time></trkpt><trkpt lat="47.63587357051737" lon="0.9183694722200119"><ele>113.85714285714285</ele><time>2026-04-19T12:35:49Z</time></trkpt><trkpt lat="47.6358243905682" lon="0.9184497650065542"><ele>114.14285714285714</ele><time>2026-04-19T12:35:50Z</time></trkpt><trkpt lat="47.635770246751996" lon="0.9185188433375527"><ele>114.42857142857142</ele><time>2026-04-19T12:35:51Z</time></trkpt><trkpt lat="47.635711900493305" lon="0.9185704954358227"><ele>114.7142857142857</ele><time>2026-04-19T12:35:52Z</time></trkpt><trkpt lat="47.635643302231784" lon="0.9186268346892149"><ele>114.99999999999999</ele><time>2026-04-19T12:35:53Z</time></trkpt><trkpt lat="47.63558801767685" lon="0.9186900029893952"><ele>115.28571428571428</ele><time>2026-04-19T12:35:54Z</time></trkpt><trkpt lat="47.63553239629749" lon="0.9187552025110263"><ele>115.57142857142857</ele><time>2026-04-19T12:35:55Z</time></trkpt><trkpt lat="47.63548680913737" lon="0.9188264391806762"><ele>115.85714285714286</ele><time>2026-04-19T12:35:56Z</time></trkpt><trkpt lat="47.635438173218695" lon="0.9188860074262226"><ele>116.14285714285714</ele><time>2026-04-19T12:35:57Z</time></trkpt><trkpt lat="47.63538303280204" lon="0.9189531255664516"><ele>116.42857142857144</ele><time>2026-04-19T12:35:58Z</time></trkpt><trkpt lat="47.635326990816715" lon="0.9190277242109284"><ele>116.71428571428572</ele><time>2026-04-19T12:35:59Z</time></trkpt><trkpt lat="47.63527370581318" lon="0.9191021119260351"><ele>117.0</ele><time>2026-04-19T12:36:00Z</time></trkpt><trkpt lat="47.635219526875616" lon="0.9191645244747063"><ele>118.0</ele><time>2026-04-19T12:36:01Z</time></trkpt><trkpt lat="47.63514100748634" lon="0.9192752942357026"><ele>118.99999999999999</ele><time>2026-04-19T12:36:03Z</time></trkpt><trkpt lat="47.635098117097776" lon="0.9194025320116878"><ele>119.99999999999999</ele><time>2026-04-19T12:36:05Z</time></trkpt><trkpt lat="47.63501250872238" lon="0.9194656595945969"><ele>121.0</ele><time>2026-04-19T12:36:09Z</time></trkpt><trkpt lat="47.63491636701842" lon="0.9195079578491858"><ele>122.0</ele><time>2026-04-19T12:36:11Z</time></trkpt><trkpt lat="47.63485007907888" lon="0.9195606106648861"><ele>121.99999999999999</ele><time>2026-04-19T12:36:12Z</time></trkpt><trkpt lat="47.63479532856795" lon="0.9196088507455293"><ele>122.0</ele><time>2026-04-19T12:36:13Z</time></trkpt><trkpt lat="47.63473314079776" lon="0.9196647029808409"><ele>122.0</ele><time>2026-04-19T12:36:14Z</time></trkpt><trkpt lat="47.63465029088667" lon="0.9197534540505965"><ele>122.0</ele><time>2026-04-19T12:36:15Z</time></trkpt><trkpt lat="47.63457153271722" lon="0.9198016820845343"><ele>121.99999999999999</ele><time>2026-04-19T12:36:16Z</time></trkpt><trkpt lat="47.63450735517271" lon="0.919849368305776"><ele>122.0</ele><time>2026-04-19T12:36:17Z</time></trkpt><trkpt lat="47.63442926812265" lon="0.9199593102795784"><ele>121.83333333333333</ele><time>2026-04-19T12:36:19Z</time></trkpt><trkpt lat="47.634315614895236" lon="0.9200469261256753"><ele>121.66666666666666</ele><time>2026-04-19T12:36:21Z</time></trkpt><trkpt lat="47.63425145904347" lon="0.9200734308878507"><ele>121.5</ele><time>2026-04-19T12:36:22Z</time></trkpt><trkpt lat="47.63419056474977" lon="0.920107097174513"><ele>121.33333333333334</ele><time>2026-04-19T12:36:23Z</time></trkpt><trkpt lat="47.63407401810998" lon="0.9201645079427256"><ele>121.16666666666667</ele><time>2026-04-19T12:36:25Z</time></trkpt><trkpt lat="47.634016318497366" lon="0.9202070212562454"><ele>121.0</ele><time>2026-04-19T12:36:26Z</time></trkpt><trkpt lat="47.63394721732068" lon="0.9202408934197694"><ele>121.00000000000001</ele><time>2026-04-19T12:36:27Z</time></trkpt><trkpt lat="47.63385881542762" lon="0.9202779258031091"><ele>121.0</ele><time>2026-04-19T12:36:28Z</time></trkpt><trkpt lat="47.6337899992645" lon="0.9203057125301181"><ele>121.0</ele><time>2026-04-19T12:36:29Z</time></trkpt><trkpt lat="47.633665046696265" lon="0.9203235346308516"><ele>121.0</ele><time>2026-04-19T12:36:31Z</time></trkpt><trkpt lat="47.63359208798545" lon="0.9203497963568695"><ele>121.00000000000001</ele><time>2026-04-19T12:36:32Z</time></trkpt><trkpt lat="47.633526345856446" lon="0.9203784188092694"><ele>121.0</ele><time>2026-04-19T12:36:33Z</time></trkpt><trkpt lat="47.63343429643159" lon="0.9204061394218329"><ele>120.4</ele><time>2026-04-19T12:36:34Z</time></trkpt><trkpt lat="47.63333159039209" lon="0.9204321245945162"><ele>119.8</ele><time>2026-04-19T12:36:35Z</time></trkpt><trkpt lat="47.6332171411342" lon="0.9204435633631839"><ele>119.20000000000002</ele><time>2026-04-19T12:36:36Z</time></trkpt><trkpt lat="47.633123686161554" lon="0.9204329953237131"><ele>118.60000000000001</ele><time>2026-04-19T12:36:37Z</time></trkpt><trkpt lat="47.63304598948282" lon="0.9204120898618395"><ele>118.0</ele><time>2026-04-19T12:36:38Z</time></trkpt><trkpt lat="47.632965774480546" lon="0.9203989955491403"><ele>118.0</ele><time>2026-04-19T12:36:40Z</time></trkpt><trkpt lat="47.63286318475787" lon="0.9203422722999933"><ele>118.00000000000001</ele><time>2026-04-19T12:36:42Z</time></trkpt><trkpt lat="47.63275400015133" lon="0.9202413548018943"><ele>118.00000000000001</ele><time>2026-04-19T12:36:44Z</time></trkpt><trkpt lat="47.632676360831226" lon="0.9201429974764731"><ele>118.0</ele><time>2026-04-19T12:36:45Z</time></trkpt><trkpt lat="47.63261034284893" lon="0.9200282728576494"><ele>118.0</ele><time>2026-04-19T12:36:46Z</time></trkpt><trkpt lat="47.6325354716656" lon="0.9198866357626213"><ele>115.60000000000001</ele><time>2026-04-19T12:36:47Z</time></trkpt><trkpt lat="47.63246156993647" lon="0.919735766885433"><ele>113.20000000000002</ele><time>2026-04-19T12:36:48Z</time></trkpt><trkpt lat="47.632399185990565" lon="0.9195961186106085"><ele>110.8</ele><time>2026-04-19T12:36:49Z</time></trkpt><trkpt lat="47.63232548315227" lon="0.919466655332075"><ele>108.4</ele><time>2026-04-19T12:36:50Z</time></trkpt><trkpt lat="47.632269352957586" lon="0.9193593754292706"><ele>106.0</ele><time>2026-04-19T12:36:51Z</time></trkpt><trkpt lat="47.6322420523278" lon="0.9192652928319459"><ele>106.0</ele><time>2026-04-19T12:36:53Z</time></trkpt><trkpt lat="47.63211523859999" lon="0.9194310283516705"><ele>106.0</ele><time>2026-04-19T12:36:59Z</time></trkpt><trkpt lat="47.63205148614954" lon="0.9195477010844714"><ele>106.0</ele><time>2026-04-19T12:37:00Z</time></trkpt><trkpt lat="47.63199125949673" lon="0.9196774866741548"><ele>106.0</ele><time>2026-04-19T12:37:01Z</time></trkpt><trkpt lat="47.631917312430424" lon="0.9198438209017178"><ele>107.19999999999999</ele><time>2026-04-19T12:37:02Z</time></trkpt><trkpt lat="47.631857465093226" lon="0.9199885038700047"><ele>108.39999999999999</ele><time>2026-04-19T12:37:03Z</time></trkpt><trkpt lat="47.63178954585824" lon="0.9201702462322576"><ele>109.6</ele><time>2026-04-19T12:37:04Z</time></trkpt><trkpt lat="47.631774920155074" lon="0.9202733964280041"><ele>110.8</ele><time>2026-04-19T12:37:05Z</time></trkpt><trkpt lat="47.631755978640754" lon="0.9204034997984097"><ele>112.0</ele><time>2026-04-19T12:37:06Z</time></trkpt><trkpt lat="47.63177261473867" lon="0.9205379683721343"><ele>113.6</ele><time>2026-04-19T12:37:07Z</time></trkpt><trkpt lat="47.63176028303567" lon="0.9206731263125891"><ele>115.19999999999999</ele><time>2026-04-19T12:37:08Z</time></trkpt><trkpt lat="47.63171098243636" lon="0.9208439110382994"><ele>116.8</ele><time>2026-04-19T12:37:09Z</time></trkpt><trkpt lat="47.63169095426715" lon="0.9210039777360934"><ele>118.4</ele><time>2026-04-19T12:37:10Z</time></trkpt><trkpt lat="47.63167644361654" lon="0.921139582358958"><ele>120.0</ele><time>2026-04-19T12:37:11Z</time></trkpt><trkpt lat="47.63165869911787" lon="0.9212641198282971"><ele>120.33333333333333</ele><time>2026-04-19T12:37:12Z</time></trkpt><trkpt lat="47.631630780047466" lon="0.9213880119029064"><ele>120.66666666666666</ele><time>2026-04-19T12:37:13Z</time></trkpt><trkpt lat="47.63160120848855" lon="0.921475584804753"><ele>121.0</ele><time>2026-04-19T12:37:14Z</time></trkpt><trkpt lat="47.631549706775104" lon="0.9215844895614752"><ele>121.33333333333333</ele><time>2026-04-19T12:37:16Z</time></trkpt><trkpt lat="47.631507707447" lon="0.9216577970217726"><ele>121.66666666666666</ele><time>2026-04-19T12:37:18Z</time></trkpt><trkpt lat="47.63144323984421" lon="0.9215800704998465"><ele>122.0</ele><time>2026-04-19T12:37:20Z</time></trkpt><trkpt lat="47.63140269259131" lon="0.921420409719798"><ele>122.0</ele><time>2026-04-19T12:37:22.001Z</time></trkpt><trkpt lat="47.631372104092506" lon="0.9212973388172258"><ele>121.99999999999999</ele><time>2026-04-19T12:37:23.001Z</time></trkpt><trkpt lat="47.63133466648725" lon="0.9211391567077624"><ele>121.99999999999999</ele><time>2026-04-19T12:37:24.001Z</time></trkpt><trkpt lat="47.6312965425137" lon="0.9209689564143836"><ele>122.0</ele><time>2026-04-19T12:37:25.001Z</time></trkpt><trkpt lat="47.63124959054146" lon="0.9208499193435731"><ele>122.0</ele><time>2026-04-19T12:37:26.001Z</time></trkpt><trkpt lat="47.631166378997754" lon="0.9207428289666815"><ele>122.83333333333333</ele><time>2026-04-19T12:37:28.001Z</time></trkpt><trkpt lat="47.631091952917394" lon="0.9206895510703701"><ele>123.66666666666666</ele><time>2026-04-19T12:37:30.001Z</time></trkpt><trkpt lat="47.631047429643736" lon="0.9206199251977135"><ele>124.5</ele><time>2026-04-19T12:40:51Z</time></trkpt><trkpt lat="47.63108380668246" lon="0.920697949178502"><ele>125.33333333333334</ele><time>2026-04-19T12:43:40Z</time></trkpt><trkpt lat="47.631011957589976" lon="0.920659221356934"><ele>126.16666666666667</ele><time>2026-04-19T12:49:08Z</time></trkpt><trkpt lat="47.63098958303222" lon="0.9208197168516437"><ele>127.0</ele><time>2026-04-19T12:49:11Z</time></trkpt><trkpt lat="47.63103891473008" lon="0.9209753911955672"><ele>127.66666666666667</ele><time>2026-04-19T12:49:13Z</time></trkpt><trkpt lat="47.63108809786559" lon="0.9210911984624051"><ele>128.33333333333334</ele><time>2026-04-19T12:49:15Z</time></trkpt><trkpt lat="47.631085415341104" lon="0.9212051648037964"><ele>129.0</ele><time>2026-04-19T12:49:17Z</time></trkpt><trkpt lat="47.631083872169725" lon="0.9213571938151511"><ele>129.66666666666666</ele><time>2026-04-19T12:49:19Z</time></trkpt><trkpt lat="47.63109719491657" lon="0.921501215718841"><ele>130.33333333333331</ele><time>2026-04-19T12:49:21Z</time></trkpt><trkpt lat="47.631095886372286" lon="0.9216164268317619"><ele>131.0</ele><time>2026-04-19T12:49:22Z</time></trkpt><trkpt lat="47.63107995682174" lon="0.9217350506916385"><ele>131.8</ele><time>2026-04-19T12:49:24Z</time></trkpt><trkpt lat="47.631035544090324" lon="0.9218890218563162"><ele>132.6</ele><time>2026-04-19T12:49:34Z</time></trkpt><trkpt lat="47.63099336896837" lon="0.9220419392342487"><ele>133.4</ele><time>2026-04-19T12:49:36Z</time></trkpt><trkpt lat="47.6309449314831" lon="0.9221381248577784"><ele>134.2</ele><time>2026-04-19T12:49:37Z</time></trkpt><trkpt lat="47.63089593000204" lon="0.9222374948596428"><ele>135.0</ele><time>2026-04-19T12:49:38Z</time></trkpt><trkpt lat="47.630846431277355" lon="0.9223171621700506"><ele>135.0</ele><time>2026-04-19T12:49:39Z</time></trkpt><trkpt lat="47.63078601873763" lon="0.9223918559417869"><ele>135.0</ele><time>2026-04-19T12:49:40Z</time></trkpt><trkpt lat="47.63071425161526" lon="0.922446241662445"><ele>135.0</ele><time>2026-04-19T12:49:41Z</time></trkpt><trkpt lat="47.6306311841844" lon="0.922497185875591"><ele>135.0</ele><time>2026-04-19T12:49:42Z</time></trkpt><trkpt lat="47.63054587506643" lon="0.9225347938655014"><ele>135.0</ele><time>2026-04-19T12:49:43Z</time></trkpt><trkpt lat="47.63043252477262" lon="0.9225972333465157"><ele>135.5</ele><time>2026-04-19T12:49:44Z</time></trkpt><trkpt lat="47.63030260470878" lon="0.9226713831445796"><ele>136.0</ele><time>2026-04-19T12:49:45Z</time></trkpt><trkpt lat="47.63017466761599" lon="0.9227404683888338"><ele>136.5</ele><time>2026-04-19T12:49:46Z</time></trkpt><trkpt lat="47.63006958901021" lon="0.9228034732037114"><ele>137.0</ele><time>2026-04-19T12:49:47Z</time></trkpt><trkpt lat="47.62996532568235" lon="0.9228495634453413"><ele>137.0</ele><time>2026-04-19T12:49:48Z</time></trkpt><trkpt lat="47.62986739473619" lon="0.9228855363934498"><ele>137.0</ele><time>2026-04-19T12:49:49Z</time></trkpt><trkpt lat="47.629767268683885" lon="0.9229100339275693"><ele>137.0</ele><time>2026-04-19T12:49:50Z</time></trkpt><trkpt lat="47.629664374716235" lon="0.9229523580469131"><ele>137.0</ele><time>2026-04-19T12:49:51Z</time></trkpt><trkpt lat="47.6295660154098" lon="0.9230226546522285"><ele>137.0</ele><time>2026-04-19T12:49:52Z</time></trkpt><trkpt lat="47.62946402118815" lon="0.9231465604701968"><ele>137.0</ele><time>2026-04-19T12:49:53Z</time></trkpt><trkpt lat="47.62937610761055" lon="0.9232982371746512"><ele>137.0</ele><time>2026-04-19T12:49:54Z</time></trkpt><trkpt lat="47.62931527310933" lon="0.923458360289825"><ele>137.0</ele><time>2026-04-19T12:49:55Z</time></trkpt><trkpt lat="47.629258937630354" lon="0.9236306821712644"><ele>137.0</ele><time>2026-04-19T12:49:56Z</time></trkpt><trkpt lat="47.629203618635685" lon="0.9237753432379955"><ele>137.0</ele><time>2026-04-19T12:49:57Z</time></trkpt><trkpt lat="47.62914749638547" lon="0.9238798500345565"><ele>137.0</ele><time>2026-04-19T12:49:58Z</time></trkpt><trkpt lat="47.62909002501866" lon="0.9239879366764017"><ele>137.0</ele><time>2026-04-19T12:49:59Z</time></trkpt><trkpt lat="47.62904322027003" lon="0.9241031910249058"><ele>137.0</ele><time>2026-04-19T12:50:00Z</time></trkpt><trkpt lat="47.62898071419807" lon="0.9242631049275374"><ele>137.0</ele><time>2026-04-19T12:50:01Z</time></trkpt><trkpt lat="47.62892109352045" lon="0.9244280822589117"><ele>137.0</ele><time>2026-04-19T12:50:02Z</time></trkpt><trkpt lat="47.62885844613865" lon="0.9246089262086782"><ele>137.0</ele><time>2026-04-19T12:50:03Z</time></trkpt><trkpt lat="47.62878980629591" lon="0.924822482084753"><ele>137.0</ele><time>2026-04-19T12:50:04Z</time></trkpt><trkpt lat="47.62871016168268" lon="0.9250661857952317"><ele>137.66666666666666</ele><time>2026-04-19T12:50:05Z</time></trkpt><trkpt lat="47.628628330249526" lon="0.9253222419895024"><ele>138.33333333333334</ele><time>2026-04-19T12:50:06Z</time></trkpt><trkpt lat="47.62855699933501" lon="0.9255142895985875"><ele>139.0</ele><time>2026-04-19T12:50:07Z</time></trkpt><trkpt lat="47.62850625540048" lon="0.9256692541005328"><ele>139.0</ele><time>2026-04-19T12:50:08Z</time></trkpt><trkpt lat="47.62846297917132" lon="0.9257922466179213"><ele>139.0</ele><time>2026-04-19T12:50:09Z</time></trkpt><trkpt lat="47.62841958056556" lon="0.9259199458670947"><ele>139.0</ele><time>2026-04-19T12:50:11Z</time></trkpt><trkpt lat="47.62847841282516" lon="0.9260269279442451"><ele>139.0</ele><time>2026-04-19T12:50:14Z</time></trkpt><trkpt lat="47.62861606688058" lon="0.9261126972420766"><ele>139.0</ele><time>2026-04-19T12:50:16Z</time></trkpt><trkpt lat="47.62871089036442" lon="0.9262127442171507"><ele>139.5</ele><time>2026-04-19T12:50:17Z</time></trkpt><trkpt lat="47.62881257416671" lon="0.926268752722924"><ele>140.0</ele><time>2026-04-19T12:50:18Z</time></trkpt><trkpt lat="47.62892877002066" lon="0.926361742706835"><ele>140.5</ele><time>2026-04-19T12:50:19Z</time></trkpt><trkpt lat="47.62903925433" lon="0.926474424028725"><ele>141.0</ele><time>2026-04-19T12:50:20Z</time></trkpt><trkpt lat="47.629126950328484" lon="0.9265158669509497"><ele>141.0</ele><time>2026-04-19T12:50:21Z</time></trkpt><trkpt lat="47.62918424340376" lon="0.92656154494036"><ele>141.0</ele><time>2026-04-19T12:50:22Z</time></trkpt><trkpt lat="47.62923749198744" lon="0.9266399998371257"><ele>141.0</ele><time>2026-04-19T12:50:27Z</time></trkpt><trkpt lat="47.62920447793062" lon="0.9267637864020105"><ele>141.0</ele><time>2026-04-19T12:50:29Z</time></trkpt><trkpt lat="47.62921564139569" lon="0.9268681393756758"><ele>141.0</ele><time>2026-04-19T12:50:30Z</time></trkpt><trkpt lat="47.62924132628211" lon="0.9270052644636024"><ele>141.0</ele><time>2026-04-19T12:50:31Z</time></trkpt><trkpt lat="47.629251959820785" lon="0.9271837086523519"><ele>141.0</ele><time>2026-04-19T12:50:32Z</time></trkpt><trkpt lat="47.629239736369925" lon="0.9273976559032736"><ele>141.0</ele><time>2026-04-19T12:50:33Z</time></trkpt><trkpt lat="47.629217492060164" lon="0.9276428504286617"><ele>141.0</ele><time>2026-04-19T12:50:34Z</time></trkpt><trkpt lat="47.62920308662769" lon="0.9278675303993161"><ele>141.5</ele><time>2026-04-19T12:50:35Z</time></trkpt><trkpt lat="47.62919108957844" lon="0.9280591850466411"><ele>142.0</ele><time>2026-04-19T12:50:36Z</time></trkpt><trkpt lat="47.629187517930276" lon="0.9282591204435676"><ele>142.5</ele><time>2026-04-19T12:50:37Z</time></trkpt><trkpt lat="47.629180538008605" lon="0.9284869154682647"><ele>143.0</ele><time>2026-04-19T12:50:38Z</time></trkpt><trkpt lat="47.62916708829024" lon="0.9287319672786849"><ele>143.0</ele><time>2026-04-19T12:50:39Z</time></trkpt><trkpt lat="47.629137237101105" lon="0.9289901095656561"><ele>143.0</ele><time>2026-04-19T12:50:40Z</time></trkpt><trkpt lat="47.62910313729627" lon="0.9292867636325084"><ele>143.0</ele><time>2026-04-19T12:50:41Z</time></trkpt><trkpt lat="47.629081535858056" lon="0.9295567944572077"><ele>144.0</ele><time>2026-04-19T12:50:42Z</time></trkpt><trkpt lat="47.62906007288724" lon="0.9297723836845597"><ele>145.0</ele><time>2026-04-19T12:50:43Z</time></trkpt><trkpt lat="47.6289990007338" lon="0.9299837174080955"><ele>146.0</ele><time>2026-04-19T12:50:44Z</time></trkpt><trkpt lat="47.62897611287871" lon="0.9302212407894662"><ele>146.33333333333331</ele><time>2026-04-19T12:50:45Z</time></trkpt><trkpt lat="47.628976201533355" lon="0.9305062408833427"><ele>146.66666666666666</ele><time>2026-04-19T12:50:46Z</time></trkpt><trkpt lat="47.628946564570164" lon="0.9308265861384366"><ele>147.0</ele><time>2026-04-19T12:50:47Z</time></trkpt><trkpt lat="47.62891504264978" lon="0.9311395211391983"><ele>147.0</ele><time>2026-04-19T12:50:48Z</time></trkpt><trkpt lat="47.62886874518375" lon="0.9313893760088545"><ele>147.0</ele><time>2026-04-19T12:50:49Z</time></trkpt><trkpt lat="47.62881706664912" lon="0.9316191782556716"><ele>147.0</ele><time>2026-04-19T12:50:50Z</time></trkpt><trkpt lat="47.62876627364512" lon="0.9318342972419855"><ele>147.0</ele><time>2026-04-19T12:50:51Z</time></trkpt><trkpt lat="47.6287282075087" lon="0.9320277877391466"><ele>147.0</ele><time>2026-04-19T12:50:52Z</time></trkpt><trkpt lat="47.62872596701682" lon="0.932230809532941"><ele>147.0</ele><time>2026-04-19T12:50:53Z</time></trkpt><trkpt lat="47.62871756300157" lon="0.9324298149844935"><ele>147.0</ele><time>2026-04-19T12:50:54Z</time></trkpt><trkpt lat="47.62872312899643" lon="0.9326525467349565"><ele>146.25</ele><time>2026-04-19T12:50:55Z</time></trkpt><trkpt lat="47.628730860240715" lon="0.9328703173582038"><ele>145.5</ele><time>2026-04-19T12:50:56Z</time></trkpt><trkpt lat="47.62870286138462" lon="0.9330574253903492"><ele>144.75</ele><time>2026-04-19T12:50:57Z</time></trkpt><trkpt lat="47.628688919981826" lon="0.9332200129258401"><ele>144.0</ele><time>2026-04-19T12:50:58Z</time></trkpt><trkpt lat="47.628675286643016" lon="0.9333790077226072"><ele>144.2</ele><time>2026-04-19T12:50:59Z</time></trkpt><trkpt lat="47.62866224949247" lon="0.9335232103887613"><ele>144.4</ele><time>2026-04-19T12:51:00Z</time></trkpt><trkpt lat="47.62865370343052" lon="0.9336703818667965"><ele>144.6</ele><time>2026-04-19T12:51:01Z</time></trkpt><trkpt lat="47.62868093965114" lon="0.9338303030022543"><ele>144.8</ele><time>2026-04-19T12:51:02Z</time></trkpt><trkpt lat="47.628687175076635" lon="0.9339961691235901"><ele>145.0</ele><time>2026-04-19T12:51:03Z</time></trkpt><trkpt lat="47.62867828541928" lon="0.9341417431467507"><ele>145.0</ele><time>2026-04-19T12:51:04Z</time></trkpt><trkpt lat="47.628668956288195" lon="0.9342865021078135"><ele>145.0</ele><time>2026-04-19T12:51:05Z</time></trkpt><trkpt lat="47.62865533186866" lon="0.934439006763659"><ele>145.0</ele><time>2026-04-19T12:51:06Z</time></trkpt><trkpt lat="47.62864244380594" lon="0.9345893436830058"><ele>145.0</ele><time>2026-04-19T12:51:07Z</time></trkpt><trkpt lat="47.628631035691235" lon="0.9347304927822677"><ele>145.0</ele><time>2026-04-19T12:51:08Z</time></trkpt><trkpt lat="47.62861980011601" lon="0.9348675922755735"><ele>144.8</ele><time>2026-04-19T12:51:09Z</time></trkpt><trkpt lat="47.6286076289057" lon="0.9350108648055309"><ele>144.6</ele><time>2026-04-19T12:51:10Z</time></trkpt><trkpt lat="47.62859574257611" lon="0.9351536698346262"><ele>144.4</ele><time>2026-04-19T12:51:11Z</time></trkpt><trkpt lat="47.62859829076994" lon="0.9353146171525237"><ele>144.2</ele><time>2026-04-19T12:51:12Z</time></trkpt><trkpt lat="47.62857809760849" lon="0.9354781665961241"><ele>144.0</ele><time>2026-04-19T12:51:13Z</time></trkpt><trkpt lat="47.628568946168464" lon="0.935639226321998"><ele>143.83333333333334</ele><time>2026-04-19T12:51:14Z</time></trkpt><trkpt lat="47.62855744448833" lon="0.9357784489669534"><ele>143.66666666666666</ele><time>2026-04-19T12:51:15Z</time></trkpt><trkpt lat="47.62854511169677" lon="0.9359015685733881"><ele>143.5</ele><time>2026-04-19T12:51:16Z</time></trkpt><trkpt lat="47.6285320685787" lon="0.9360235343111567"><ele>143.33333333333331</ele><time>2026-04-19T12:51:17Z</time></trkpt><trkpt lat="47.628518105946014" lon="0.9361502263315421"><ele>143.16666666666666</ele><time>2026-04-19T12:51:18Z</time></trkpt><trkpt lat="47.62850426396385" lon="0.9362813254850786"><ele>143.0</ele><time>2026-04-19T12:51:19Z</time></trkpt><trkpt lat="47.62849775941501" lon="0.9363895388330463"><ele>143.0</ele><time>2026-04-19T12:51:20Z</time></trkpt><trkpt lat="47.62849006970872" lon="0.9365040308709923"><ele>143.0</ele><time>2026-04-19T12:51:21Z</time></trkpt><trkpt lat="47.62848170883203" lon="0.9366072100141785"><ele>143.0</ele><time>2026-04-19T12:51:22Z</time></trkpt><trkpt lat="47.62847954101852" lon="0.9367109668298195"><ele>143.0</ele><time>2026-04-19T12:51:23Z</time></trkpt><trkpt lat="47.62847377778972" lon="0.9368122274656316"><ele>143.0</ele><time>2026-04-19T12:51:24Z</time></trkpt><trkpt lat="47.6284761964819" lon="0.936981721147294"><ele>143.0</ele><time>2026-04-19T12:51:26Z</time></trkpt><trkpt lat="47.62847257635379" lon="0.9371325349043964"><ele>143.0</ele><time>2026-04-19T12:51:28Z</time></trkpt><trkpt lat="47.62847285026063" lon="0.9372416322192686"><ele>143.0</ele><time>2026-04-19T12:51:30Z</time></trkpt><trkpt lat="47.62846808377732" lon="0.9373930366997854"><ele>143.0</ele><time>2026-04-19T12:51:37Z</time></trkpt><trkpt lat="47.62845853082665" lon="0.9375303270401785"><ele>143.0</ele><time>2026-04-19T12:51:38Z</time></trkpt><trkpt lat="47.628441093694434" lon="0.9377048168097544"><ele>143.0</ele><time>2026-04-19T12:51:39Z</time></trkpt><trkpt lat="47.628430000328976" lon="0.937946212529559"><ele>143.33333333333331</ele><time>2026-04-19T12:51:40Z</time></trkpt><trkpt lat="47.62841756356864" lon="0.9382285456530954"><ele>143.66666666666666</ele><time>2026-04-19T12:51:41Z</time></trkpt><trkpt lat="47.62840552682816" lon="0.9385402557200315"><ele>144.0</ele><time>2026-04-19T12:51:42Z</time></trkpt><trkpt lat="47.62841976673529" lon="0.9388766215652743"><ele>144.5</ele><time>2026-04-19T12:51:43Z</time></trkpt><trkpt lat="47.6284240270071" lon="0.9392249841221928"><ele>145.0</ele><time>2026-04-19T12:51:44Z</time></trkpt><trkpt lat="47.628412460805414" lon="0.9395938582460426"><ele>145.0</ele><time>2026-04-19T12:51:45Z</time></trkpt><trkpt lat="47.628392704435036" lon="0.9399789987813582"><ele>145.0</ele><time>2026-04-19T12:51:46Z</time></trkpt><trkpt lat="47.62837418819316" lon="0.940380001482239"><ele>144.0</ele><time>2026-04-19T12:51:47Z</time></trkpt><trkpt lat="47.628368805761085" lon="0.94073688533197"><ele>143.0</ele><time>2026-04-19T12:51:48Z</time></trkpt><trkpt lat="47.628371159202366" lon="0.9410481878506952"><ele>143.0</ele><time>2026-04-19T12:51:49Z</time></trkpt><trkpt lat="47.62836888610002" lon="0.941332494371393"><ele>143.0</ele><time>2026-04-19T12:51:50Z</time></trkpt><trkpt lat="47.62836656658735" lon="0.9415915631717476"><ele>143.0</ele><time>2026-04-19T12:51:51Z</time></trkpt><trkpt lat="47.62836481355093" lon="0.9418387751803464"><ele>143.0</ele><time>2026-04-19T12:51:52Z</time></trkpt><trkpt lat="47.62835943927795" lon="0.9420716898329627"><ele>143.0</ele><time>2026-04-19T12:51:53Z</time></trkpt><trkpt lat="47.62834415392573" lon="0.9422849347938562"><ele>143.0</ele><time>2026-04-19T12:51:54Z</time></trkpt><trkpt lat="47.62832774574148" lon="0.9424772956230529"><ele>143.0</ele><time>2026-04-19T12:51:55Z</time></trkpt><trkpt lat="47.62830180568051" lon="0.9426455876345095"><ele>143.0</ele><time>2026-04-19T12:51:56Z</time></trkpt><trkpt lat="47.62826947101226" lon="0.942795747464651"><ele>143.0</ele><time>2026-04-19T12:51:57Z</time></trkpt><trkpt lat="47.628242275745365" lon="0.9429404720729038"><ele>143.0</ele><time>2026-04-19T12:51:58Z</time></trkpt><trkpt lat="47.62824489617555" lon="0.9430822806639783"><ele>143.0</ele><time>2026-04-19T12:51:59Z</time></trkpt><trkpt lat="47.62825449302282" lon="0.9432253044588725"><ele>143.0</ele><time>2026-04-19T12:52:00Z</time></trkpt><trkpt lat="47.62830037577786" lon="0.9433865455368665"><ele>143.33333333333331</ele><time>2026-04-19T12:52:01Z</time></trkpt><trkpt lat="47.62836661351196" lon="0.9436183321270541"><ele>143.66666666666666</ele><time>2026-04-19T12:52:02Z</time></trkpt><trkpt lat="47.628378902046364" lon="0.9438293184329613"><ele>144.0</ele><time>2026-04-19T12:52:03Z</time></trkpt><trkpt lat="47.62841320977892" lon="0.9440423334999294"><ele>143.0</ele><time>2026-04-19T12:52:04Z</time></trkpt><trkpt lat="47.628447425538994" lon="0.9442989444364697"><ele>142.0</ele><time>2026-04-19T12:52:05Z</time></trkpt><trkpt lat="47.62849904955781" lon="0.9445739284303516"><ele>141.0</ele><time>2026-04-19T12:52:06Z</time></trkpt><trkpt lat="47.62852992260067" lon="0.9448933480571048"><ele>141.5</ele><time>2026-04-19T12:52:07Z</time></trkpt><trkpt lat="47.62855970165673" lon="0.9452253094059243"><ele>142.0</ele><time>2026-04-19T12:52:08Z</time></trkpt><trkpt lat="47.628605325603544" lon="0.9455666438743078"><ele>142.0</ele><time>2026-04-19T12:52:09Z</time></trkpt><trkpt lat="47.628625729008505" lon="0.9458612436058191"><ele>142.0</ele><time>2026-04-19T12:52:10Z</time></trkpt><trkpt lat="47.62865280793392" lon="0.9461604923543478"><ele>142.0</ele><time>2026-04-19T12:52:11Z</time></trkpt><trkpt lat="47.62867658535897" lon="0.9464511233711536"><ele>142.0</ele><time>2026-04-19T12:52:12Z</time></trkpt><trkpt lat="47.6287048451796" lon="0.9467603955634085"><ele>142.0</ele><time>2026-04-19T12:52:13Z</time></trkpt><trkpt lat="47.62873405983404" lon="0.9470526356911508"><ele>142.0</ele><time>2026-04-19T12:52:14Z</time></trkpt><trkpt lat="47.628760871586465" lon="0.9473322567780756"><ele>142.33333333333334</ele><time>2026-04-19T12:52:15Z</time></trkpt><trkpt lat="47.628784302271896" lon="0.9476108395371586"><ele>142.66666666666666</ele><time>2026-04-19T12:52:16Z</time></trkpt><trkpt lat="47.628772861153976" lon="0.9478881370059271"><ele>143.0</ele><time>2026-04-19T12:52:17Z</time></trkpt><trkpt lat="47.62878433818064" lon="0.9481997094296333"><ele>142.33333333333331</ele><time>2026-04-19T12:52:18Z</time></trkpt><trkpt lat="47.62876280728628" lon="0.9484918193552992"><ele>141.66666666666666</ele><time>2026-04-19T12:52:19Z</time></trkpt><trkpt lat="47.628728801084634" lon="0.9487674556113128"><ele>141.0</ele><time>2026-04-19T12:52:20Z</time></trkpt><trkpt lat="47.628696234140364" lon="0.9490209857905286"><ele>141.0</ele><time>2026-04-19T12:52:21Z</time></trkpt><trkpt lat="47.628641570506254" lon="0.9492828991448216"><ele>141.0</ele><time>2026-04-19T12:52:22Z</time></trkpt><trkpt lat="47.628571314845566" lon="0.9495515874682712"><ele>141.0</ele><time>2026-04-19T12:52:23Z</time></trkpt><trkpt lat="47.62850420291526" lon="0.9498214011481926"><ele>141.0</ele><time>2026-04-19T12:52:24Z</time></trkpt><trkpt lat="47.62843909952255" lon="0.9501069543831716"><ele>141.0</ele><time>2026-04-19T12:52:25Z</time></trkpt><trkpt lat="47.62836391470903" lon="0.9504138805637058"><ele>141.0</ele><time>2026-04-19T12:52:26Z</time></trkpt><trkpt lat="47.628301048391386" lon="0.9506941394544187"><ele>140.75</ele><time>2026-04-19T12:52:27Z</time></trkpt><trkpt lat="47.62825091097765" lon="0.9509142988172009"><ele>140.5</ele><time>2026-04-19T12:52:28Z</time></trkpt><trkpt lat="47.6282153497404" lon="0.9510755555371481"><ele>140.25</ele><time>2026-04-19T12:52:29Z</time></trkpt><trkpt lat="47.628179689920664" lon="0.9512162420049898"><ele>140.0</ele><time>2026-04-19T12:52:30Z</time></trkpt><trkpt lat="47.62814744141622" lon="0.95134970181461"><ele>140.0</ele><time>2026-04-19T12:52:31Z</time></trkpt><trkpt lat="47.628123280539775" lon="0.9514882644785718"><ele>140.0</ele><time>2026-04-19T12:52:32Z</time></trkpt><trkpt lat="47.62811490936937" lon="0.951632156893348"><ele>140.0</ele><time>2026-04-19T12:52:33Z</time></trkpt><trkpt lat="47.62814031917447" lon="0.9517788726103537"><ele>140.0</ele><time>2026-04-19T12:52:34Z</time></trkpt><trkpt lat="47.6281946826143" lon="0.9519094468538609"><ele>140.0</ele><time>2026-04-19T12:52:35Z</time></trkpt><trkpt lat="47.62828086646417" lon="0.9520197427739472"><ele>140.0</ele><time>2026-04-19T12:52:36Z</time></trkpt><trkpt lat="47.628387291860925" lon="0.9521010524709318"><ele>140.0</ele><time>2026-04-19T12:52:37Z</time></trkpt><trkpt lat="47.62849658957806" lon="0.9521715367710826"><ele>140.0</ele><time>2026-04-19T12:52:38Z</time></trkpt><trkpt lat="47.62860865533968" lon="0.9522148652046545"><ele>140.0</ele><time>2026-04-19T12:52:39Z</time></trkpt><trkpt lat="47.628733685263704" lon="0.9522481683343016"><ele>140.5</ele><time>2026-04-19T12:52:40Z</time></trkpt><trkpt lat="47.62888563590416" lon="0.9522911428552796"><ele>141.0</ele><time>2026-04-19T12:52:41Z</time></trkpt><trkpt lat="47.6290106167127" lon="0.9523360523144021"><ele>141.5</ele><time>2026-04-19T12:52:42Z</time></trkpt><trkpt lat="47.62912119454652" lon="0.9523785942174173"><ele>142.0</ele><time>2026-04-19T12:52:43Z</time></trkpt><trkpt lat="47.62920658419075" lon="0.9524338919673484"><ele>142.0</ele><time>2026-04-19T12:52:44Z</time></trkpt><trkpt lat="47.62927529219795" lon="0.9524691115930575"><ele>142.0</ele><time>2026-04-19T12:52:45Z</time></trkpt><trkpt lat="47.6293269182598" lon="0.9525608121593546"><ele>142.0</ele><time>2026-04-19T12:52:47Z</time></trkpt><trkpt lat="47.62933884188741" lon="0.952740732384295"><ele>142.0</ele><time>2026-04-19T12:52:49Z</time></trkpt><trkpt lat="47.629345595824525" lon="0.9529028051634482"><ele>142.0</ele><time>2026-04-19T12:52:50Z</time></trkpt><trkpt lat="47.62936183377181" lon="0.9530893501696519"><ele>142.0</ele><time>2026-04-19T12:52:51Z</time></trkpt><trkpt lat="47.62937247498617" lon="0.9533179944155421"><ele>142.0</ele><time>2026-04-19T12:52:52Z</time></trkpt><trkpt lat="47.629362222026806" lon="0.9536039548580939"><ele>142.0</ele><time>2026-04-19T12:52:53Z</time></trkpt><trkpt lat="47.62935933003953" lon="0.9539193070642946"><ele>141.33333333333334</ele><time>2026-04-19T12:52:54Z</time></trkpt><trkpt lat="47.629359519686204" lon="0.9541993385677536"><ele>140.66666666666666</ele><time>2026-04-19T12:52:55Z</time></trkpt><trkpt lat="47.62937836525774" lon="0.9544434367108194"><ele>140.0</ele><time>2026-04-19T12:52:56Z</time></trkpt><trkpt lat="47.62941880219756" lon="0.9546526731110749"><ele>140.0</ele><time>2026-04-19T12:52:57Z</time></trkpt><trkpt lat="47.62947839668495" lon="0.9548365410031552"><ele>140.0</ele><time>2026-04-19T12:52:58Z</time></trkpt><trkpt lat="47.6295433415781" lon="0.9550058899143227"><ele>140.0</ele><time>2026-04-19T12:52:59Z</time></trkpt><trkpt lat="47.6296073382963" lon="0.9551373320666521"><ele>140.0</ele><time>2026-04-19T12:53:00Z</time></trkpt><trkpt lat="47.62965966174185" lon="0.955221347518717"><ele>139.5</ele><time>2026-04-19T12:53:01Z</time></trkpt><trkpt lat="47.62971532688336" lon="0.9553297001740136"><ele>139.0</ele><time>2026-04-19T12:53:02Z</time></trkpt><trkpt lat="47.62983343179648" lon="0.9554388803545033"><ele>138.5</ele><time>2026-04-19T12:53:03Z</time></trkpt><trkpt lat="47.62996230555884" lon="0.9555832100568836"><ele>138.0</ele><time>2026-04-19T12:53:04Z</time></trkpt><trkpt lat="47.63010404255673" lon="0.955775037224543"><ele>137.33333333333334</ele><time>2026-04-19T12:53:05Z</time></trkpt><trkpt lat="47.63023225336769" lon="0.955955715059501"><ele>136.66666666666669</ele><time>2026-04-19T12:53:06Z</time></trkpt><trkpt lat="47.63032596764422" lon="0.9561263270626669"><ele>136.0</ele><time>2026-04-19T12:53:07Z</time></trkpt><trkpt lat="47.6304110900554" lon="0.9562970824830974"><ele>136.0</ele><time>2026-04-19T12:53:08Z</time></trkpt><trkpt lat="47.630491966503364" lon="0.9564641738934538"><ele>136.0</ele><time>2026-04-19T12:53:09Z</time></trkpt><trkpt lat="47.63058993135325" lon="0.9566307446900025"><ele>136.0</ele><time>2026-04-19T12:53:10Z</time></trkpt><trkpt lat="47.63067484463037" lon="0.9568187861459547"><ele>136.0</ele><time>2026-04-19T12:53:11Z</time></trkpt><trkpt lat="47.63076115915938" lon="0.9569993746665637"><ele>135.75</ele><time>2026-04-19T12:53:12Z</time></trkpt><trkpt lat="47.630836746670084" lon="0.95717887202477"><ele>135.5</ele><time>2026-04-19T12:53:13Z</time></trkpt><trkpt lat="47.630920635846884" lon="0.9573532558634896"><ele>135.25</ele><time>2026-04-19T12:53:14Z</time></trkpt><trkpt lat="47.63100160692543" lon="0.9575225919078633"><ele>135.0</ele><time>2026-04-19T12:53:15Z</time></trkpt><trkpt lat="47.63107952363259" lon="0.9576991251290244"><ele>134.0</ele><time>2026-04-19T12:53:16Z</time></trkpt><trkpt lat="47.631170171661374" lon="0.9578825285714786"><ele>133.0</ele><time>2026-04-19T12:53:17Z</time></trkpt><trkpt lat="47.63128291299331" lon="0.9581241400006814"><ele>132.0</ele><time>2026-04-19T12:53:18Z</time></trkpt><trkpt lat="47.63140943579525" lon="0.958378072106105"><ele>131.33333333333334</ele><time>2026-04-19T12:53:19Z</time></trkpt><trkpt lat="47.63152527187829" lon="0.9586213728466875"><ele>130.66666666666669</ele><time>2026-04-19T12:53:20Z</time></trkpt><trkpt lat="47.63162420441949" lon="0.9588252608593777"><ele>130.0</ele><time>2026-04-19T12:53:21Z</time></trkpt><trkpt lat="47.63171805467084" lon="0.9590139805679673"><ele>130.0</ele><time>2026-04-19T12:53:22Z</time></trkpt><trkpt lat="47.63180179769686" lon="0.959198040942266"><ele>130.0</ele><time>2026-04-19T12:53:23Z</time></trkpt><trkpt lat="47.63186572012004" lon="0.9593853596203976"><ele>130.0</ele><time>2026-04-19T12:53:24Z</time></trkpt><trkpt lat="47.63194498583481" lon="0.9595452425655038"><ele>130.0</ele><time>2026-04-19T12:53:25Z</time></trkpt><trkpt lat="47.63200267988765" lon="0.9597103360859707"><ele>130.0</ele><time>2026-04-19T12:53:26Z</time></trkpt><trkpt lat="47.632029760007875" lon="0.9598862032614845"><ele>130.0</ele><time>2026-04-19T12:53:27Z</time></trkpt><trkpt lat="47.632067954955275" lon="0.9600516267121176"><ele>130.0</ele><time>2026-04-19T12:53:28Z</time></trkpt><trkpt lat="47.63211515999746" lon="0.9602076264028943"><ele>130.0</ele><time>2026-04-19T12:53:29Z</time></trkpt><trkpt lat="47.632145399401715" lon="0.9603614236496888"><ele>129.25</ele><time>2026-04-19T12:53:30Z</time></trkpt><trkpt lat="47.63217247750776" lon="0.9605064237407529"><ele>128.5</ele><time>2026-04-19T12:53:31Z</time></trkpt><trkpt lat="47.63220437039179" lon="0.9606500042698052"><ele>127.75</ele><time>2026-04-19T12:53:32Z</time></trkpt><trkpt lat="47.632241174186994" lon="0.9608357981417418"><ele>127.0</ele><time>2026-04-19T12:53:33Z</time></trkpt><trkpt lat="47.632298533182144" lon="0.9610584257621858"><ele>126.0</ele><time>2026-04-19T12:53:34Z</time></trkpt><trkpt lat="47.63234603171247" lon="0.9613350095600997"><ele>125.0</ele><time>2026-04-19T12:53:35Z</time></trkpt><trkpt lat="47.63240537878126" lon="0.9616096675786443"><ele>124.0</ele><time>2026-04-19T12:53:36Z</time></trkpt><trkpt lat="47.63246118071496" lon="0.9618820402765375"><ele>123.66666666666667</ele><time>2026-04-19T12:53:37Z</time></trkpt><trkpt lat="47.63250583923557" lon="0.9621440237336073"><ele>123.33333333333334</ele><time>2026-04-19T12:53:38Z</time></trkpt><trkpt lat="47.632523525939135" lon="0.9623913719744353"><ele>123.0</ele><time>2026-04-19T12:53:39Z</time></trkpt><trkpt lat="47.632547622404" lon="0.9626167548513418"><ele>123.0</ele><time>2026-04-19T12:53:40Z</time></trkpt><trkpt lat="47.63256667001325" lon="0.9628052744361189"><ele>123.0</ele><time>2026-04-19T12:53:41Z</time></trkpt><trkpt lat="47.63259074631733" lon="0.9630025582055357"><ele>123.0</ele><time>2026-04-19T12:53:42Z</time></trkpt><trkpt lat="47.63264352190255" lon="0.9631649388134754"><ele>123.0</ele><time>2026-04-19T12:53:43Z</time></trkpt><trkpt lat="47.632725994772294" lon="0.9633510739372564"><ele>123.0</ele><time>2026-04-19T12:53:44Z</time></trkpt><trkpt lat="47.6327631005728" lon="0.9635996389376823"><ele>123.0</ele><time>2026-04-19T12:53:45Z</time></trkpt><trkpt lat="47.63283385265768" lon="0.9638383927951105"><ele>123.0</ele><time>2026-04-19T12:53:46Z</time></trkpt><trkpt lat="47.63290207696191" lon="0.9640771263875536"><ele>122.75</ele><time>2026-04-19T12:53:47Z</time></trkpt><trkpt lat="47.63295614485922" lon="0.9642756221026924"><ele>122.5</ele><time>2026-04-19T12:53:48Z</time></trkpt><trkpt lat="47.63300771236946" lon="0.9644676418324015"><ele>122.25</ele><time>2026-04-19T12:53:49Z</time></trkpt><trkpt lat="47.63304716280427" lon="0.9646227295026883"><ele>122.0</ele><time>2026-04-19T12:53:50Z</time></trkpt><trkpt lat="47.633082715295934" lon="0.9647549836886005"><ele>122.0</ele><time>2026-04-19T12:53:51Z</time></trkpt><trkpt lat="47.63310858417755" lon="0.9648581146994848"><ele>122.0</ele><time>2026-04-19T12:53:52Z</time></trkpt><trkpt lat="47.63315463352894" lon="0.9650581431820683"><ele>122.0</ele><time>2026-04-19T12:53:54Z</time></trkpt><trkpt lat="47.6331796880485" lon="0.9652187398356902"><ele>122.0</ele><time>2026-04-19T12:53:55Z</time></trkpt><trkpt lat="47.63318694988692" lon="0.9654048255688468"><ele>122.0</ele><time>2026-04-19T12:53:56Z</time></trkpt><trkpt lat="47.63318173813062" lon="0.9655846457836947"><ele>122.0</ele><time>2026-04-19T12:53:57Z</time></trkpt><trkpt lat="47.633184466349704" lon="0.965808790235828"><ele>122.0</ele><time>2026-04-19T12:53:58Z</time></trkpt><trkpt lat="47.63317352094461" lon="0.9660584224869264"><ele>122.0</ele><time>2026-04-19T12:53:59Z</time></trkpt><trkpt lat="47.633158616448526" lon="0.9663386115539349"><ele>122.0</ele><time>2026-04-19T12:54:00Z</time></trkpt><trkpt lat="47.63314380714351" lon="0.9665964270084827"><ele>122.0</ele><time>2026-04-19T12:54:01Z</time></trkpt><trkpt lat="47.633129774200945" lon="0.9668938856527107"><ele>122.0</ele><time>2026-04-19T12:54:02Z</time></trkpt><trkpt lat="47.633110493634796" lon="0.9671898391620882"><ele>122.5</ele><time>2026-04-19T12:54:03Z</time></trkpt><trkpt lat="47.633085934683145" lon="0.9675358596457502"><ele>123.0</ele><time>2026-04-19T12:54:04Z</time></trkpt><trkpt lat="47.633063633577045" lon="0.9678562805738964"><ele>123.0</ele><time>2026-04-19T12:54:05Z</time></trkpt><trkpt lat="47.63305525914689" lon="0.9681363809689619"><ele>123.0</ele><time>2026-04-19T12:54:06Z</time></trkpt><trkpt lat="47.633055755386756" lon="0.9683871012323653"><ele>123.0</ele><time>2026-04-19T12:54:07Z</time></trkpt><trkpt lat="47.633063453072815" lon="0.9686103547341154"><ele>123.25</ele><time>2026-04-19T12:54:08Z</time></trkpt><trkpt lat="47.633084518097085" lon="0.968818139407479"><ele>123.5</ele><time>2026-04-19T12:54:09Z</time></trkpt><trkpt lat="47.63310787527195" lon="0.9690422291037571"><ele>123.75</ele><time>2026-04-19T12:54:10Z</time></trkpt><trkpt lat="47.63314220824431" lon="0.9692663234939202"><ele>124.0</ele><time>2026-04-19T12:54:11Z</time></trkpt><trkpt lat="47.63317691216169" lon="0.969479808632379"><ele>124.5</ele><time>2026-04-19T12:54:12Z</time></trkpt><trkpt lat="47.633215109733115" lon="0.9696683364233905"><ele>125.0</ele><time>2026-04-19T12:54:13Z</time></trkpt><trkpt lat="47.633252586443035" lon="0.9698530215820487"><ele>125.5</ele><time>2026-04-19T12:54:14Z</time></trkpt><trkpt lat="47.63328767071849" lon="0.9700295222697086"><ele>126.0</ele><time>2026-04-19T12:54:15Z</time></trkpt><trkpt lat="47.63333232830152" lon="0.9701938650051816"><ele>126.0</ele><time>2026-04-19T12:54:16Z</time></trkpt><trkpt lat="47.63338327191877" lon="0.9703638694596044"><ele>126.0</ele><time>2026-04-19T12:54:17Z</time></trkpt><trkpt lat="47.633434765837386" lon="0.970523969330173"><ele>126.0</ele><time>2026-04-19T12:54:18Z</time></trkpt><trkpt lat="47.6334825923254" lon="0.9706615647566766"><ele>126.0</ele><time>2026-04-19T12:54:19Z</time></trkpt><trkpt lat="47.633535948228825" lon="0.9708216836363235"><ele>126.5</ele><time>2026-04-19T12:54:20Z</time></trkpt><trkpt lat="47.633591526191076" lon="0.9709947748425596"><ele>127.0</ele><time>2026-04-19T12:54:21Z</time></trkpt><trkpt lat="47.6336447600751" lon="0.9711819789867119"><ele>127.5</ele><time>2026-04-19T12:54:22Z</time></trkpt><trkpt lat="47.63370201950754" lon="0.9713687895955433"><ele>128.0</ele><time>2026-04-19T12:54:23Z</time></trkpt><trkpt lat="47.633778833533526" lon="0.9715776498822827"><ele>127.25</ele><time>2026-04-19T12:54:24Z</time></trkpt><trkpt lat="47.63384342383469" lon="0.9717719260817544"><ele>126.5</ele><time>2026-04-19T12:54:25Z</time></trkpt><trkpt lat="47.63389885374092" lon="0.9719466638041343"><ele>125.75</ele><time>2026-04-19T12:54:26Z</time></trkpt><trkpt lat="47.63396117076391" lon="0.9721310211568905"><ele>125.0</ele><time>2026-04-19T12:54:27Z</time></trkpt><trkpt lat="47.634020711155266" lon="0.9723191888515028"><ele>125.0</ele><time>2026-04-19T12:54:28Z</time></trkpt><trkpt lat="47.634075160950815" lon="0.9725016198903218"><ele>125.0</ele><time>2026-04-19T12:54:29Z</time></trkpt><trkpt lat="47.634129543420876" lon="0.9726803168850197"><ele>125.0</ele><time>2026-04-19T12:54:30Z</time></trkpt><trkpt lat="47.63417311705391" lon="0.9728592930815877"><ele>125.0</ele><time>2026-04-19T12:54:31Z</time></trkpt><trkpt lat="47.634214177557006" lon="0.973036651110983"><ele>125.0</ele><time>2026-04-19T12:54:32Z</time></trkpt><trkpt lat="47.634247269933674" lon="0.9732248135815732"><ele>125.0</ele><time>2026-04-19T12:54:33Z</time></trkpt><trkpt lat="47.63427956496589" lon="0.9734144276528641"><ele>125.0</ele><time>2026-04-19T12:54:34Z</time></trkpt><trkpt lat="47.63431355871483" lon="0.9735900721027507"><ele>125.0</ele><time>2026-04-19T12:54:35Z</time></trkpt><trkpt lat="47.634349130962235" lon="0.9737745877354601"><ele>125.0</ele><time>2026-04-19T12:54:36Z</time></trkpt><trkpt lat="47.634383955227335" lon="0.9739597709125258"><ele>125.0</ele><time>2026-04-19T12:54:37Z</time></trkpt><trkpt lat="47.63441554245997" lon="0.974136448867235"><ele>125.0</ele><time>2026-04-19T12:54:38Z</time></trkpt><trkpt lat="47.634448905328576" lon="0.9743104531535577"><ele>125.0</ele><time>2026-04-19T12:54:39Z</time></trkpt><trkpt lat="47.6344823659427" lon="0.9744844341873953"><ele>125.0</ele><time>2026-04-19T12:54:40Z</time></trkpt><trkpt lat="47.63451721288212" lon="0.9746754797011707"><ele>125.0</ele><time>2026-04-19T12:54:41Z</time></trkpt><trkpt lat="47.63455063045275" lon="0.9748627800795335"><ele>125.0</ele><time>2026-04-19T12:54:42Z</time></trkpt><trkpt lat="47.63458735813353" lon="0.9750640132282679"><ele>125.0</ele><time>2026-04-19T12:54:43Z</time></trkpt><trkpt lat="47.63462513104855" lon="0.9752714655385534"><ele>125.0</ele><time>2026-04-19T12:54:44Z</time></trkpt><trkpt lat="47.63466534820874" lon="0.9754764149944497"><ele>125.0</ele><time>2026-04-19T12:54:45Z</time></trkpt><trkpt lat="47.634706776781606" lon="0.9756894227719759"><ele>125.0</ele><time>2026-04-19T12:54:46Z</time></trkpt><trkpt lat="47.63474096427983" lon="0.9758772876849455"><ele>125.0</ele><time>2026-04-19T12:54:47Z</time></trkpt><trkpt lat="47.63476450484596" lon="0.9760126157353183"><ele>125.0</ele><time>2026-04-19T12:54:48Z</time></trkpt><trkpt lat="47.63478138007783" lon="0.9761146311377145"><ele>125.0</ele><time>2026-04-19T12:54:49Z</time></trkpt><trkpt lat="47.63480126122593" lon="0.9762117609614492"><ele>125.0</ele><time>2026-04-19T12:54:50Z</time></trkpt><trkpt lat="47.63482387130085" lon="0.9763219788075415"><ele>125.0</ele><time>2026-04-19T12:54:51Z</time></trkpt><trkpt lat="47.634832241253555" lon="0.9764788926854109"><ele>125.0</ele><time>2026-04-19T12:54:52Z</time></trkpt><trkpt lat="47.634870569961436" lon="0.9766622819529714"><ele>125.33333333333333</ele><time>2026-04-19T12:54:53Z</time></trkpt><trkpt lat="47.63491840875534" lon="0.9768827303179829"><ele>125.66666666666666</ele><time>2026-04-19T12:54:54Z</time></trkpt><trkpt lat="47.634985708766024" lon="0.9771199348723576"><ele>126.0</ele><time>2026-04-19T12:54:55Z</time></trkpt><trkpt lat="47.63503554446003" lon="0.9774336685380021"><ele>126.0</ele><time>2026-04-19T12:54:56Z</time></trkpt><trkpt lat="47.63509862857773" lon="0.9777335469352418"><ele>126.0</ele><time>2026-04-19T12:54:57Z</time></trkpt><trkpt lat="47.635164905602466" lon="0.9780489879066544"><ele>126.0</ele><time>2026-04-19T12:54:58Z</time></trkpt><trkpt lat="47.635223066717295" lon="0.9783225119030188"><ele>125.33333333333334</ele><time>2026-04-19T12:54:59Z</time></trkpt><trkpt lat="47.63527737575744" lon="0.9785659759839228"><ele>124.66666666666667</ele><time>2026-04-19T12:55:00Z</time></trkpt><trkpt lat="47.635321196687016" lon="0.9787986484200799"><ele>124.0</ele><time>2026-04-19T12:55:01Z</time></trkpt><trkpt lat="47.635347912983924" lon="0.9789990092809289"><ele>124.0</ele><time>2026-04-19T12:55:02Z</time></trkpt><trkpt lat="47.635367761537886" lon="0.9792004520254488"><ele>124.0</ele><time>2026-04-19T12:55:03Z</time></trkpt><trkpt lat="47.635381484718366" lon="0.9793872750716"><ele>124.0</ele><time>2026-04-19T12:55:04Z</time></trkpt><trkpt lat="47.63539311707695" lon="0.9795591867478229"><ele>124.0</ele><time>2026-04-19T12:55:05Z</time></trkpt><trkpt lat="47.63540836313834" lon="0.9797148692163609"><ele>124.0</ele><time>2026-04-19T12:55:06Z</time></trkpt><trkpt lat="47.63544682623877" lon="0.9798662092930198"><ele>124.0</ele><time>2026-04-19T12:55:07Z</time></trkpt><trkpt lat="47.63554843893132" lon="0.979988510342197"><ele>124.0</ele><time>2026-04-19T12:55:08Z</time></trkpt><trkpt lat="47.635645418977845" lon="0.9801135936736516"><ele>124.0</ele><time>2026-04-19T12:55:09Z</time></trkpt><trkpt lat="47.63573633770017" lon="0.9802375457809036"><ele>124.0</ele><time>2026-04-19T12:55:10Z</time></trkpt><trkpt lat="47.6358234197299" lon="0.9803932877464882"><ele>124.0</ele><time>2026-04-19T12:55:11Z</time></trkpt><trkpt lat="47.635921498206486" lon="0.9805310731064625"><ele>124.0</ele><time>2026-04-19T12:55:12Z</time></trkpt><trkpt lat="47.6360300098753" lon="0.9806499504263533"><ele>124.0</ele><time>2026-04-19T12:55:13Z</time></trkpt><trkpt lat="47.636108008526335" lon="0.9808027490938016"><ele>123.25</ele><time>2026-04-19T12:55:14Z</time></trkpt><trkpt lat="47.63619064404611" lon="0.9809421250386899"><ele>122.5</ele><time>2026-04-19T12:55:15Z</time></trkpt><trkpt lat="47.636271138405924" lon="0.9810879119556156"><ele>121.75</ele><time>2026-04-19T12:55:16Z</time></trkpt><trkpt lat="47.636358258744195" lon="0.9812473637662352"><ele>121.0</ele><time>2026-04-19T12:55:17Z</time></trkpt><trkpt lat="47.63645893252216" lon="0.9813886005632844"><ele>121.0</ele><time>2026-04-19T12:55:18Z</time></trkpt><trkpt lat="47.63653158325264" lon="0.9815566293652351"><ele>121.0</ele><time>2026-04-19T12:55:19Z</time></trkpt><trkpt lat="47.636605089014985" lon="0.9817127316819931"><ele>121.0</ele><time>2026-04-19T12:55:20Z</time></trkpt><trkpt lat="47.63665343792948" lon="0.9818866111977341"><ele>121.0</ele><time>2026-04-19T12:55:21Z</time></trkpt><trkpt lat="47.6366899217962" lon="0.9820892063569736"><ele>121.25</ele><time>2026-04-19T12:55:22Z</time></trkpt><trkpt lat="47.636721127300746" lon="0.9822987577069652"><ele>121.5</ele><time>2026-04-19T12:55:23Z</time></trkpt><trkpt lat="47.63676866500703" lon="0.9825128930167729"><ele>121.75</ele><time>2026-04-19T12:55:24Z</time></trkpt><trkpt lat="47.63677690263344" lon="0.9827116224784407"><ele>122.0</ele><time>2026-04-19T12:55:25Z</time></trkpt><trkpt lat="47.636815247541755" lon="0.9828797617543251"><ele>122.0</ele><time>2026-04-19T12:55:26Z</time></trkpt><trkpt lat="47.6368490474363" lon="0.9830485638836151"><ele>122.0</ele><time>2026-04-19T12:55:27Z</time></trkpt><trkpt lat="47.63693495801939" lon="0.9832245680918454"><ele>122.0</ele><time>2026-04-19T12:55:28Z</time></trkpt><trkpt lat="47.63703920153854" lon="0.983399213961299"><ele>122.0</ele><time>2026-04-19T12:55:29Z</time></trkpt><trkpt lat="47.63714169281185" lon="0.9835764827126445"><ele>122.0</ele><time>2026-04-19T12:55:30Z</time></trkpt><trkpt lat="47.63723179247465" lon="0.983751131893171"><ele>122.0</ele><time>2026-04-19T12:55:31Z</time></trkpt><trkpt lat="47.637322576576956" lon="0.9839312108898928"><ele>122.0</ele><time>2026-04-19T12:55:32Z</time></trkpt><trkpt lat="47.637413753680136" lon="0.9840913193129028"><ele>122.0</ele><time>2026-04-19T12:55:33Z</time></trkpt><trkpt lat="47.63752100181339" lon="0.9842216652117622"><ele>121.75</ele><time>2026-04-19T12:55:34Z</time></trkpt><trkpt lat="47.63763742803805" lon="0.9843483982619244"><ele>121.5</ele><time>2026-04-19T12:55:35Z</time></trkpt><trkpt lat="47.63776451208306" lon="0.9844803440465252"><ele>121.25</ele><time>2026-04-19T12:55:36Z</time></trkpt><trkpt lat="47.63788874795224" lon="0.9846028386438274"><ele>121.0</ele><time>2026-04-19T12:55:37Z</time></trkpt><trkpt lat="47.638008598857986" lon="0.9847266477336909"><ele>121.0</ele><time>2026-04-19T12:55:38Z</time></trkpt><trkpt lat="47.63812493068475" lon="0.9848613161308708"><ele>121.0</ele><time>2026-04-19T12:55:39Z</time></trkpt><trkpt lat="47.63823290517243" lon="0.9849956310090541"><ele>121.0</ele><time>2026-04-19T12:55:40Z</time></trkpt><trkpt lat="47.63832896030305" lon="0.9851285075032429"><ele>121.0</ele><time>2026-04-19T12:55:41Z</time></trkpt><trkpt lat="47.638424298088964" lon="0.985262935069623"><ele>121.0</ele><time>2026-04-19T12:55:42Z</time></trkpt><trkpt lat="47.638515368090225" lon="0.985399958967091"><ele>121.0</ele><time>2026-04-19T12:55:43Z</time></trkpt><trkpt lat="47.63859347630041" lon="0.9855522919287932"><ele>121.0</ele><time>2026-04-19T12:55:44Z</time></trkpt><trkpt lat="47.63866764016347" lon="0.9857093388980928"><ele>121.0</ele><time>2026-04-19T12:55:45Z</time></trkpt><trkpt lat="47.63873955796383" lon="0.9858774189320746"><ele>120.75</ele><time>2026-04-19T12:55:46Z</time></trkpt><trkpt lat="47.638803392625604" lon="0.9860558693858883"><ele>120.5</ele><time>2026-04-19T12:55:47Z</time></trkpt><trkpt lat="47.63886604963343" lon="0.9862372888071338"><ele>120.25</ele><time>2026-04-19T12:55:48Z</time></trkpt><trkpt lat="47.638925616403775" lon="0.9864305999663581"><ele>120.0</ele><time>2026-04-19T12:55:49Z</time></trkpt><trkpt lat="47.638987878140625" lon="0.9866484406768836"><ele>120.33333333333334</ele><time>2026-04-19T12:55:50Z</time></trkpt><trkpt lat="47.63904813277383" lon="0.9868672337477393"><ele>120.66666666666667</ele><time>2026-04-19T12:55:51Z</time></trkpt><trkpt lat="47.63909723278478" lon="0.9870737744585092"><ele>121.0</ele><time>2026-04-19T12:55:52Z</time></trkpt><trkpt lat="47.63912845976226" lon="0.9872910704285335"><ele>121.0</ele><time>2026-04-19T12:55:53Z</time></trkpt><trkpt lat="47.63915195893981" lon="0.9875309268078324"><ele>121.0</ele><time>2026-04-19T12:55:54Z</time></trkpt><trkpt lat="47.639178143101546" lon="0.987782912655083"><ele>121.0</ele><time>2026-04-19T12:55:55Z</time></trkpt><trkpt lat="47.63920239399239" lon="0.9880114481054151"><ele>121.0</ele><time>2026-04-19T12:55:56Z</time></trkpt><trkpt lat="47.63922647204604" lon="0.9882178296586875"><ele>121.0</ele><time>2026-04-19T12:55:57Z</time></trkpt><trkpt lat="47.63924804077038" lon="0.9884188311216988"><ele>121.0</ele><time>2026-04-19T12:55:58Z</time></trkpt><trkpt lat="47.63926565868949" lon="0.9886196631495331"><ele>121.0</ele><time>2026-04-19T12:55:59Z</time></trkpt><trkpt lat="47.639288491833746" lon="0.9888184430044017"><ele>121.0</ele><time>2026-04-19T12:56:00Z</time></trkpt><trkpt lat="47.63932026423362" lon="0.9890197366174043"><ele>121.0</ele><time>2026-04-19T12:56:01Z</time></trkpt><trkpt lat="47.63935243028439" lon="0.9892138190738684"><ele>121.0</ele><time>2026-04-19T12:56:02Z</time></trkpt><trkpt lat="47.63938016810569" lon="0.9894094087706543"><ele>121.0</ele><time>2026-04-19T12:56:03Z</time></trkpt><trkpt lat="47.63940199392351" lon="0.9896009637753889"><ele>121.0</ele><time>2026-04-19T12:56:04Z</time></trkpt><trkpt lat="47.63942718933623" lon="0.9897761690951183"><ele>121.0</ele><time>2026-04-19T12:56:05Z</time></trkpt><trkpt lat="47.639453076155554" lon="0.9899572983526107"><ele>121.0</ele><time>2026-04-19T12:56:06Z</time></trkpt><trkpt lat="47.639529242847075" lon="0.9901137185642027"><ele>121.0</ele><time>2026-04-19T12:56:07Z</time></trkpt><trkpt lat="47.63950819912598" lon="0.9903372976122148"><ele>120.0</ele><time>2026-04-19T12:56:08Z</time></trkpt><trkpt lat="47.63953417599609" lon="0.9905478790647996"><ele>119.0</ele><time>2026-04-19T12:56:09Z</time></trkpt><trkpt lat="47.63956203233732" lon="0.9907669255462642"><ele>118.0</ele><time>2026-04-19T12:56:10Z</time></trkpt><trkpt lat="47.63960660957643" lon="0.99100708057439"><ele>118.0</ele><time>2026-04-19T12:56:11Z</time></trkpt><trkpt lat="47.639642771301446" lon="0.99125512263424"><ele>118.0</ele><time>2026-04-19T12:56:12Z</time></trkpt><trkpt lat="47.63967569140374" lon="0.9915493200689469"><ele>118.0</ele><time>2026-04-19T12:56:13Z</time></trkpt><trkpt lat="47.63969985547512" lon="0.9918712032518898"><ele>118.33333333333334</ele><time>2026-04-19T12:56:14Z</time></trkpt><trkpt lat="47.63970975876137" lon="0.9922057280879188"><ele>118.66666666666666</ele><time>2026-04-19T12:56:15Z</time></trkpt><trkpt lat="47.63969391501977" lon="0.9924881959310484"><ele>119.0</ele><time>2026-04-19T12:56:16Z</time></trkpt><trkpt lat="47.63968630544997" lon="0.9927315954076862"><ele>119.0</ele><time>2026-04-19T12:56:17Z</time></trkpt><trkpt lat="47.639693931373145" lon="0.9929536159238583"><ele>119.0</ele><time>2026-04-19T12:56:18Z</time></trkpt><trkpt lat="47.639726141657704" lon="0.9931558537205236"><ele>119.0</ele><time>2026-04-19T12:56:19Z</time></trkpt><trkpt lat="47.6397677652617" lon="0.9933314101420813"><ele>119.0</ele><time>2026-04-19T12:56:20Z</time></trkpt><trkpt lat="47.63980341334414" lon="0.9934802387008146"><ele>119.2</ele><time>2026-04-19T12:56:21Z</time></trkpt><trkpt lat="47.6398370996633" lon="0.9936005732373809"><ele>119.4</ele><time>2026-04-19T12:56:22Z</time></trkpt><trkpt lat="47.639871039408554" lon="0.993688295188139"><ele>119.6</ele><time>2026-04-19T12:56:23Z</time></trkpt><trkpt lat="47.639912610824204" lon="0.9937976415593982"><ele>119.8</ele><time>2026-04-19T12:56:25Z</time></trkpt><trkpt lat="47.640066264044634" lon="0.9937510322997929"><ele>120.0</ele><time>2026-04-19T12:56:26Z</time></trkpt><trkpt lat="47.6401657692707" lon="0.9937760820586096"><ele>120.0</ele><time>2026-04-19T12:56:27Z</time></trkpt><trkpt lat="47.64027605686736" lon="0.9938262738167299"><ele>120.0</ele><time>2026-04-19T12:56:28Z</time></trkpt><trkpt lat="47.64039754364545" lon="0.9938879435063535"><ele>120.0</ele><time>2026-04-19T12:56:29Z</time></trkpt><trkpt lat="47.64049625539186" lon="0.9939233471074699"><ele>120.0</ele><time>2026-04-19T12:56:30Z</time></trkpt><trkpt lat="47.64058417620295" lon="0.9939492216180487"><ele>120.0</ele><time>2026-04-19T12:56:31Z</time></trkpt><trkpt lat="47.64066355817213" lon="0.9939812543088594"><ele>120.0</ele><time>2026-04-19T12:56:32Z</time></trkpt><trkpt lat="47.640742684186904" lon="0.9941633296320984"><ele>120.0</ele><time>2026-04-19T12:56:34Z</time></trkpt><trkpt lat="47.64074733200871" lon="0.9943338502816553"><ele>120.0</ele><time>2026-04-19T12:56:35Z</time></trkpt><trkpt lat="47.64077176633075" lon="0.9945424333968649"><ele>120.0</ele><time>2026-04-19T12:56:36Z</time></trkpt><trkpt lat="47.64080717362731" lon="0.9947922713381806"><ele>119.66666666666666</ele><time>2026-04-19T12:56:37Z</time></trkpt><trkpt lat="47.64085277414316" lon="0.9950569869779526"><ele>119.33333333333333</ele><time>2026-04-19T12:56:38Z</time></trkpt><trkpt lat="47.64092196466356" lon="0.9953444289198363"><ele>119.0</ele><time>2026-04-19T12:56:39Z</time></trkpt><trkpt lat="47.64101477083989" lon="0.9956338683086775"><ele>119.0</ele><time>2026-04-19T12:56:40Z</time></trkpt><trkpt lat="47.64111224462787" lon="0.9959215167468384"><ele>119.0</ele><time>2026-04-19T12:56:41Z</time></trkpt><trkpt lat="47.6412030018875" lon="0.9961857250161336"><ele>119.0</ele><time>2026-04-19T12:56:42Z</time></trkpt><trkpt lat="47.641279114729244" lon="0.9964201546434986"><ele>119.0</ele><time>2026-04-19T12:56:43Z</time></trkpt><trkpt lat="47.641349441588865" lon="0.9966361529154453"><ele>119.0</ele><time>2026-04-19T12:56:44Z</time></trkpt><trkpt lat="47.641421233008984" lon="0.9968531595688652"><ele>119.0</ele><time>2026-04-19T12:56:45Z</time></trkpt><trkpt lat="47.64149171035431" lon="0.9970696510755621"><ele>119.0</ele><time>2026-04-19T12:56:46Z</time></trkpt><trkpt lat="47.64156659427419" lon="0.9972852644930443"><ele>119.0</ele><time>2026-04-19T12:56:47Z</time></trkpt><trkpt lat="47.64163543652613" lon="0.9975005247401676"><ele>119.0</ele><time>2026-04-19T12:56:48Z</time></trkpt><trkpt lat="47.641707848519104" lon="0.9977111364920623"><ele>119.0</ele><time>2026-04-19T12:56:49Z</time></trkpt><trkpt lat="47.64178094527379" lon="0.9979207570198635"><ele>119.0</ele><time>2026-04-19T12:56:50Z</time></trkpt><trkpt lat="47.641848021971455" lon="0.9981335867045785"><ele>119.0</ele><time>2026-04-19T12:56:51Z</time></trkpt><trkpt lat="47.641916688939745" lon="0.9983459788363559"><ele>118.75</ele><time>2026-04-19T12:56:52Z</time></trkpt><trkpt lat="47.64198171021506" lon="0.9985523099160252"><ele>118.5</ele><time>2026-04-19T12:56:53Z</time></trkpt><trkpt lat="47.64204654690692" lon="0.998746134428787"><ele>118.25</ele><time>2026-04-19T12:56:54Z</time></trkpt><trkpt lat="47.64211555079374" lon="0.998934084574172"><ele>118.0</ele><time>2026-04-19T12:56:55Z</time></trkpt><trkpt lat="47.64219409130407" lon="0.9991047263416022"><ele>118.25</ele><time>2026-04-19T12:56:56Z</time></trkpt><trkpt lat="47.64228827291189" lon="0.999243234087492"><ele>118.5</ele><time>2026-04-19T12:56:57Z</time></trkpt><trkpt lat="47.6424112293859" lon="0.9993466368540687"><ele>118.75</ele><time>2026-04-19T12:56:58Z</time></trkpt><trkpt lat="47.64255172878724" lon="0.9994289438306775"><ele>119.0</ele><time>2026-04-19T12:56:59Z</time></trkpt><trkpt lat="47.64269915313997" lon="0.9994972569317812"><ele>119.25</ele><time>2026-04-19T12:57:00Z</time></trkpt><trkpt lat="47.642834961795344" lon="0.9995875606889704"><ele>119.5</ele><time>2026-04-19T12:57:01Z</time></trkpt><trkpt lat="47.642963304084766" lon="0.9996603728311224"><ele>119.75</ele><time>2026-04-19T12:57:02Z</time></trkpt><trkpt lat="47.64309644680279" lon="0.9997422618548006"><ele>120.0</ele><time>2026-04-19T12:57:03Z</time></trkpt><trkpt lat="47.64323393473256" lon="0.9998395211025733"><ele>120.0</ele><time>2026-04-19T12:57:04Z</time></trkpt><trkpt lat="47.64337651174069" lon="0.999930556188736"><ele>120.0</ele><time>2026-04-19T12:57:05Z</time></trkpt><trkpt lat="47.64351198653578" lon="1.0000171596567566"><ele>120.0</ele><time>2026-04-19T12:57:06Z</time></trkpt><trkpt lat="47.64364714755514" lon="1.000110031680464"><ele>120.66666666666666</ele><time>2026-04-19T12:57:07Z</time></trkpt><trkpt lat="47.64378827804943" lon="1.0002210721124625"><ele>121.33333333333333</ele><time>2026-04-19T12:57:08Z</time></trkpt><trkpt lat="47.64391952781906" lon="1.000341767362095"><ele>122.0</ele><time>2026-04-19T12:57:09Z</time></trkpt><trkpt lat="47.64403705002119" lon="1.0004728430856151"><ele>122.0</ele><time>2026-04-19T12:57:10Z</time></trkpt><trkpt lat="47.64414861172608" lon="1.0006147206660994"><ele>122.0</ele><time>2026-04-19T12:57:11Z</time></trkpt><trkpt lat="47.64425143746083" lon="1.000771421121311"><ele>122.0</ele><time>2026-04-19T12:57:12Z</time></trkpt><trkpt lat="47.64435789945302" lon="1.0009512184096927"><ele>122.0</ele><time>2026-04-19T12:57:13Z</time></trkpt><trkpt lat="47.64445742634406" lon="1.0011431758623817"><ele>122.0</ele><time>2026-04-19T12:57:14Z</time></trkpt><trkpt lat="47.64453558665195" lon="1.0013159809635814"><ele>122.0</ele><time>2026-04-19T12:57:15Z</time></trkpt><trkpt lat="47.64460894534084" lon="1.0014958075015574"><ele>122.0</ele><time>2026-04-19T12:57:16Z</time></trkpt><trkpt lat="47.64468061753591" lon="1.0016727520670556"><ele>122.0</ele><time>2026-04-19T12:57:17Z</time></trkpt><trkpt lat="47.64474837541298" lon="1.001847759067674"><ele>122.0</ele><time>2026-04-19T12:57:18Z</time></trkpt><trkpt lat="47.644820246351706" lon="1.0020269723326394"><ele>122.0</ele><time>2026-04-19T12:57:19Z</time></trkpt><trkpt lat="47.644893832338795" lon="1.0022033405531294"><ele>122.0</ele><time>2026-04-19T12:57:20Z</time></trkpt><trkpt lat="47.644969843223365" lon="1.0023847292638606"><ele>122.0</ele><time>2026-04-19T12:57:21Z</time></trkpt><trkpt lat="47.6450477777127" lon="1.0025703326399127"><ele>122.0</ele><time>2026-04-19T12:57:22Z</time></trkpt><trkpt lat="47.64512540582304" lon="1.0027531796084912"><ele>122.0</ele><time>2026-04-19T12:57:23Z</time></trkpt><trkpt lat="47.6452034979754" lon="1.0029409530487023"><ele>122.0</ele><time>2026-04-19T12:57:24Z</time></trkpt><trkpt lat="47.64528617763419" lon="1.0031444063300292"><ele>122.0</ele><time>2026-04-19T12:57:25Z</time></trkpt><trkpt lat="47.64537829688752" lon="1.0033612264008112"><ele>122.0</ele><time>2026-04-19T12:57:26Z</time></trkpt><trkpt lat="47.64545908127475" lon="1.0035612823083184"><ele>122.0</ele><time>2026-04-19T12:57:27Z</time></trkpt><trkpt lat="47.645538297512616" lon="1.00375225902479"><ele>122.0</ele><time>2026-04-19T12:57:28Z</time></trkpt><trkpt lat="47.64561726097634" lon="1.0039482693683388"><ele>122.0</ele><time>2026-04-19T12:57:29Z</time></trkpt><trkpt lat="47.645692672086504" lon="1.0041333477767544"><ele>122.0</ele><time>2026-04-19T12:57:30Z</time></trkpt><trkpt lat="47.64576745605058" lon="1.0043134723672693"><ele>122.0</ele><time>2026-04-19T12:57:31Z</time></trkpt><trkpt lat="47.64584211721257" lon="1.0044937363846431"><ele>122.0</ele><time>2026-04-19T12:57:32Z</time></trkpt><trkpt lat="47.64591733478523" lon="1.0046733673174904"><ele>122.0</ele><time>2026-04-19T12:57:33Z</time></trkpt><trkpt lat="47.645984721215854" lon="1.00483505237619"><ele>122.0</ele><time>2026-04-19T12:57:34Z</time></trkpt><trkpt lat="47.64605189133449" lon="1.0049995474826385"><ele>122.0</ele><time>2026-04-19T12:57:35Z</time></trkpt><trkpt lat="47.646124966998336" lon="1.0051812467839207"><ele>122.33333333333333</ele><time>2026-04-19T12:57:36Z</time></trkpt><trkpt lat="47.64620281529034" lon="1.0053708872623754"><ele>122.66666666666666</ele><time>2026-04-19T12:57:37Z</time></trkpt><trkpt lat="47.64628496068761" lon="1.0055721532396622"><ele>123.0</ele><time>2026-04-19T12:57:38Z</time></trkpt><trkpt lat="47.64637251149308" lon="1.0057523494057097"><ele>123.25</ele><time>2026-04-19T12:57:39Z</time></trkpt><trkpt lat="47.64645822521018" lon="1.0059195003271848"><ele>123.5</ele><time>2026-04-19T12:57:40Z</time></trkpt><trkpt lat="47.64655415551414" lon="1.0060904007660236"><ele>123.75</ele><time>2026-04-19T12:57:41Z</time></trkpt><trkpt lat="47.64665102790048" lon="1.0062616598729173"><ele>124.0</ele><time>2026-04-19T12:57:42Z</time></trkpt><trkpt lat="47.646736889985725" lon="1.0064202036138383"><ele>124.0</ele><time>2026-04-19T12:57:43Z</time></trkpt><trkpt lat="47.64682341018528" lon="1.0065640058073997"><ele>124.0</ele><time>2026-04-19T12:57:44Z</time></trkpt><trkpt lat="47.64693453049711" lon="1.0066817947674347"><ele>124.0</ele><time>2026-04-19T12:57:45Z</time></trkpt><trkpt lat="47.64707680643038" lon="1.0067502327990623"><ele>124.0</ele><time>2026-04-19T12:57:46Z</time></trkpt><trkpt lat="47.64724539697286" lon="1.0067632130300264"><ele>124.0</ele><time>2026-04-19T12:57:47Z</time></trkpt><trkpt lat="47.64742348100093" lon="1.0067754345861208"><ele>124.0</ele><time>2026-04-19T12:57:48Z</time></trkpt><trkpt lat="47.64761244452599" lon="1.006808567627471"><ele>124.0</ele><time>2026-04-19T12:57:49Z</time></trkpt><trkpt lat="47.64779176185879" lon="1.0068437273886184"><ele>123.0</ele><time>2026-04-19T12:57:50Z</time></trkpt><trkpt lat="47.64795543106043" lon="1.006868798633993"><ele>122.0</ele><time>2026-04-19T12:57:51Z</time></trkpt><trkpt lat="47.64811819652296" lon="1.0068922417672357"><ele>121.0</ele><time>2026-04-19T12:57:52Z</time></trkpt><trkpt lat="47.64827466094116" lon="1.0069135120579675"><ele>121.0</ele><time>2026-04-19T12:57:53Z</time></trkpt><trkpt lat="47.64843061948949" lon="1.0069426235648173"><ele>121.0</ele><time>2026-04-19T12:57:54Z</time></trkpt><trkpt lat="47.64858832991513" lon="1.0069775139638912"><ele>121.0</ele><time>2026-04-19T12:57:55Z</time></trkpt><trkpt lat="47.64875381191496" lon="1.0070049417446396"><ele>120.66666666666667</ele><time>2026-04-19T12:57:56Z</time></trkpt><trkpt lat="47.64890855744191" lon="1.0070336890948466"><ele>120.33333333333334</ele><time>2026-04-19T12:57:57Z</time></trkpt><trkpt lat="47.64907469767646" lon="1.007074909764966"><ele>120.0</ele><time>2026-04-19T12:57:58Z</time></trkpt><trkpt lat="47.64922239674207" lon="1.00717418574377"><ele>120.0</ele><time>2026-04-19T12:57:59Z</time></trkpt><trkpt lat="47.64937322579085" lon="1.007273482212808"><ele>120.0</ele><time>2026-04-19T12:58:00Z</time></trkpt><trkpt lat="47.64951208099718" lon="1.0074289934930991"><ele>120.0</ele><time>2026-04-19T12:58:01Z</time></trkpt><trkpt lat="47.64963007471471" lon="1.0076413102162227"><ele>120.0</ele><time>2026-04-19T12:58:02Z</time></trkpt><trkpt lat="47.64977431425338" lon="1.0078684252610084"><ele>120.0</ele><time>2026-04-19T12:58:03Z</time></trkpt><trkpt lat="47.64987763468443" lon="1.0081567943213228"><ele>120.0</ele><time>2026-04-19T12:58:04Z</time></trkpt><trkpt lat="47.64998160231554" lon="1.008459556265103"><ele>119.5</ele><time>2026-04-19T12:58:05Z</time></trkpt><trkpt lat="47.6500930313954" lon="1.0087792474416701"><ele>119.0</ele><time>2026-04-19T12:58:06Z</time></trkpt><trkpt lat="47.65018000894399" lon="1.009097032018508"><ele>119.0</ele><time>2026-04-19T12:58:07Z</time></trkpt><trkpt lat="47.650278018608525" lon="1.009390191466856"><ele>119.0</ele><time>2026-04-19T12:58:08Z</time></trkpt><trkpt lat="47.650377676467116" lon="1.0096260622898974"><ele>119.0</ele><time>2026-04-19T12:58:09Z</time></trkpt><trkpt lat="47.650529051227075" lon="1.0098437046710709"><ele>119.5</ele><time>2026-04-19T12:58:10Z</time></trkpt><trkpt lat="47.650728872637835" lon="1.010043936459017"><ele>120.0</ele><time>2026-04-19T12:58:11Z</time></trkpt><trkpt lat="47.650947319605464" lon="1.0102462363398557"><ele>119.66666666666666</ele><time>2026-04-19T12:58:12Z</time></trkpt><trkpt lat="47.65114270970731" lon="1.0104466498443991"><ele>119.33333333333333</ele><time>2026-04-19T12:58:13Z</time></trkpt><trkpt lat="47.65129791248074" lon="1.0106323347427806"><ele>119.0</ele><time>2026-04-19T12:58:14Z</time></trkpt><trkpt lat="47.651444649932216" lon="1.0108276096817848"><ele>119.0</ele><time>2026-04-19T12:58:15Z</time></trkpt><trkpt lat="47.651594922421125" lon="1.0110300950872004"><ele>119.0</ele><time>2026-04-19T12:58:16Z</time></trkpt><trkpt lat="47.651757395744" lon="1.0112417831476435"><ele>119.0</ele><time>2026-04-19T12:58:17Z</time></trkpt><trkpt lat="47.65192385677949" lon="1.011438140011136"><ele>119.0</ele><time>2026-04-19T12:58:18Z</time></trkpt><trkpt lat="47.65208829578005" lon="1.011603710945568"><ele>119.0</ele><time>2026-04-19T12:58:19Z</time></trkpt><trkpt lat="47.65223554362247" lon="1.011727606288036"><ele>119.0</ele><time>2026-04-19T12:58:20.001Z</time></trkpt><trkpt lat="47.65239832245742" lon="1.0118571172451247"><ele>119.0</ele><time>2026-04-19T12:58:21.001Z</time></trkpt><trkpt lat="47.65255625102796" lon="1.011974585099457"><ele>119.0</ele><time>2026-04-19T12:58:22.001Z</time></trkpt><trkpt lat="47.65271340070714" lon="1.0120943820373054"><ele>119.0</ele><time>2026-04-19T12:58:23.001Z</time></trkpt><trkpt lat="47.652863161654935" lon="1.0122124544872932"><ele>119.0</ele><time>2026-04-19T12:58:24.001Z</time></trkpt><trkpt lat="47.653017809698305" lon="1.0123362724546399"><ele>119.0</ele><time>2026-04-19T12:58:25.001Z</time></trkpt><trkpt lat="47.65317802696956" lon="1.0124622614028427"><ele>119.0</ele><time>2026-04-19T12:58:26.001Z</time></trkpt><trkpt lat="47.65334416791329" lon="1.0125946880675816"><ele>119.0</ele><time>2026-04-19T12:58:27.001Z</time></trkpt><trkpt lat="47.65351610424502" lon="1.012735858679079"><ele>119.0</ele><time>2026-04-19T12:58:28.001Z</time></trkpt><trkpt lat="47.65367171091811" lon="1.012871927438659"><ele>119.0</ele><time>2026-04-19T12:58:29.001Z</time></trkpt><trkpt lat="47.65381278300423" lon="1.0129876397733426"><ele>119.0</ele><time>2026-04-19T12:58:30.001Z</time></trkpt><trkpt lat="47.653952324831415" lon="1.0130970838210605"><ele>119.0</ele><time>2026-04-19T12:58:31.001Z</time></trkpt><trkpt lat="47.654093275289256" lon="1.013209606602442"><ele>119.0</ele><time>2026-04-19T12:58:32.001Z</time></trkpt><trkpt lat="47.65425270843172" lon="1.0133310208336108"><ele>119.33333333333333</ele><time>2026-04-19T12:58:33.001Z</time></trkpt><trkpt lat="47.65441579458688" lon="1.013461180759845"><ele>119.66666666666666</ele><time>2026-04-19T12:58:34.001Z</time></trkpt><trkpt lat="47.65455895677693" lon="1.013572394573349"><ele>120.0</ele><time>2026-04-19T12:58:35Z</time></trkpt><trkpt lat="47.654689752279495" lon="1.0136600959134217"><ele>120.33333333333334</ele><time>2026-04-19T12:58:36Z</time></trkpt><trkpt lat="47.65481886979017" lon="1.0137441370246953"><ele>120.66666666666667</ele><time>2026-04-19T12:58:37Z</time></trkpt><trkpt lat="47.65496672442988" lon="1.013844919569777"><ele>121.0</ele><time>2026-04-19T12:58:38Z</time></trkpt><trkpt lat="47.65511208044028" lon="1.013945864183938"><ele>121.0</ele><time>2026-04-19T12:58:39Z</time></trkpt><trkpt lat="47.6552598747301" lon="1.01403737576635"><ele>121.0</ele><time>2026-04-19T12:58:40Z</time></trkpt><trkpt lat="47.65540557873237" lon="1.01413111936728"><ele>121.0</ele><time>2026-04-19T12:58:41Z</time></trkpt><trkpt lat="47.65555082311787" lon="1.0142286244713135"><ele>121.33333333333334</ele><time>2026-04-19T12:58:42Z</time></trkpt><trkpt lat="47.65570094452877" lon="1.0143334104882629"><ele>121.66666666666666</ele><time>2026-04-19T12:58:43Z</time></trkpt><trkpt lat="47.655865400190436" lon="1.0144384209566106"><ele>122.0</ele><time>2026-04-19T12:58:44Z</time></trkpt><trkpt lat="47.65602705120319" lon="1.0145372153809369"><ele>122.33333333333333</ele><time>2026-04-19T12:58:45Z</time></trkpt><trkpt lat="47.65617802038462" lon="1.0146317317504616"><ele>122.66666666666666</ele><time>2026-04-19T12:58:46Z</time></trkpt><trkpt lat="47.65632540054456" lon="1.0147221179235797"><ele>123.0</ele><time>2026-04-19T12:58:47Z</time></trkpt><trkpt lat="47.65647024115325" lon="1.0148124419991564"><ele>123.0</ele><time>2026-04-19T12:58:48Z</time></trkpt><trkpt lat="47.65662976745392" lon="1.0149049161227868"><ele>123.0</ele><time>2026-04-19T12:58:49Z</time></trkpt><trkpt lat="47.65678266582567" lon="1.0149986477319648"><ele>123.0</ele><time>2026-04-19T12:58:50Z</time></trkpt><trkpt lat="47.656925709399836" lon="1.0150895453458855"><ele>122.75</ele><time>2026-04-19T12:58:51Z</time></trkpt><trkpt lat="47.65706072026048" lon="1.0151803892489488"><ele>122.5</ele><time>2026-04-19T12:58:52Z</time></trkpt><trkpt lat="47.65718869405768" lon="1.0152601017236278"><ele>122.25</ele><time>2026-04-19T12:58:53Z</time></trkpt><trkpt lat="47.65732898343607" lon="1.0153427363452374"><ele>122.0</ele><time>2026-04-19T12:58:54Z</time></trkpt><trkpt lat="47.65746905605982" lon="1.0154278550731937"><ele>122.0</ele><time>2026-04-19T12:58:55Z</time></trkpt><trkpt lat="47.65760686398513" lon="1.0155209270590333"><ele>122.0</ele><time>2026-04-19T12:58:56Z</time></trkpt><trkpt lat="47.657752503342806" lon="1.015614086403504"><ele>122.0</ele><time>2026-04-19T12:58:57Z</time></trkpt><trkpt lat="47.657900235810295" lon="1.0157014470010541"><ele>121.33333333333333</ele><time>2026-04-19T12:58:58Z</time></trkpt><trkpt lat="47.65805213398766" lon="1.0157931748974371"><ele>120.66666666666666</ele><time>2026-04-19T12:58:59Z</time></trkpt><trkpt lat="47.658206821238565" lon="1.0158942925171062"><ele>120.0</ele><time>2026-04-19T12:59:00Z</time></trkpt><trkpt lat="47.658346016355324" lon="1.0159880075990124"><ele>120.0</ele><time>2026-04-19T12:59:01Z</time></trkpt><trkpt lat="47.65849769852889" lon="1.0160804673320307"><ele>120.0</ele><time>2026-04-19T12:59:02Z</time></trkpt><trkpt lat="47.65865183962898" lon="1.0161735821393478"><ele>120.0</ele><time>2026-04-19T12:59:03Z</time></trkpt><trkpt lat="47.658793155646244" lon="1.016267735252883"><ele>120.33333333333334</ele><time>2026-04-19T12:59:04Z</time></trkpt><trkpt lat="47.65894000272665" lon="1.0163537283144644"><ele>120.66666666666667</ele><time>2026-04-19T12:59:05Z</time></trkpt><trkpt lat="47.65909444186287" lon="1.016417704052701"><ele>121.0</ele><time>2026-04-19T12:59:06Z</time></trkpt><trkpt lat="47.65925411889433" lon="1.0164390056617214"><ele>121.0</ele><time>2026-04-19T12:59:07Z</time></trkpt><trkpt lat="47.659421471829475" lon="1.016411711016134"><ele>121.0</ele><time>2026-04-19T12:59:08Z</time></trkpt><trkpt lat="47.65960663258415" lon="1.0163563006770728"><ele>121.0</ele><time>2026-04-19T12:59:09Z</time></trkpt><trkpt lat="47.65976960799841" lon="1.0163124439174878"><ele>121.25</ele><time>2026-04-19T12:59:10Z</time></trkpt><trkpt lat="47.659918566966" lon="1.0162836088563167"><ele>121.5</ele><time>2026-04-19T12:59:11Z</time></trkpt><trkpt lat="47.66005488780815" lon="1.0162588778686965"><ele>121.75</ele><time>2026-04-19T12:59:12Z</time></trkpt><trkpt lat="47.66019487443092" lon="1.0162286173884265"><ele>122.0</ele><time>2026-04-19T12:59:13Z</time></trkpt><trkpt lat="47.66033386044515" lon="1.0161935620131557"><ele>122.25</ele><time>2026-04-19T12:59:14Z</time></trkpt><trkpt lat="47.66047805470213" lon="1.0161614794720863"><ele>122.5</ele><time>2026-04-19T12:59:15Z</time></trkpt><trkpt lat="47.660623639852545" lon="1.0161382045581349"><ele>122.75</ele><time>2026-04-19T12:59:16Z</time></trkpt><trkpt lat="47.660758195102254" lon="1.016125144776853"><ele>123.0</ele><time>2026-04-19T12:59:17Z</time></trkpt><trkpt lat="47.660878240133776" lon="1.016119724831388"><ele>123.0</ele><time>2026-04-19T12:59:18Z</time></trkpt><trkpt lat="47.66099591059287" lon="1.016113325209113"><ele>123.0</ele><time>2026-04-19T12:59:19Z</time></trkpt><trkpt lat="47.661106880532905" lon="1.0161128401506003"><ele>123.0</ele><time>2026-04-19T12:59:20Z</time></trkpt><trkpt lat="47.66121601713741" lon="1.0160967574535238"><ele>123.0</ele><time>2026-04-19T12:59:21Z</time></trkpt><trkpt lat="47.66133157680807" lon="1.016063901981809"><ele>123.4</ele><time>2026-04-19T12:59:22Z</time></trkpt><trkpt lat="47.66144152424142" lon="1.0160276626035265"><ele>123.80000000000001</ele><time>2026-04-19T12:59:23Z</time></trkpt><trkpt lat="47.66155159604514" lon="1.015997689499726"><ele>124.2</ele><time>2026-04-19T12:59:24Z</time></trkpt><trkpt lat="47.661659517475584" lon="1.0159792220410182"><ele>124.6</ele><time>2026-04-19T12:59:25Z</time></trkpt><trkpt lat="47.66175891289978" lon="1.015950236801891"><ele>125.0</ele><time>2026-04-19T12:59:26Z</time></trkpt><trkpt lat="47.66185006408373" lon="1.0158783438373777"><ele>125.0</ele><time>2026-04-19T12:59:27Z</time></trkpt><trkpt lat="47.66192666105143" lon="1.0157593108661678"><ele>125.0</ele><time>2026-04-19T12:59:28Z</time></trkpt><trkpt lat="47.66197548665922" lon="1.0155873716005939"><ele>125.0</ele><time>2026-04-19T12:59:29Z</time></trkpt><trkpt lat="47.662005457025074" lon="1.015385180324929"><ele>125.0</ele><time>2026-04-19T12:59:30Z</time></trkpt><trkpt lat="47.66204909126593" lon="1.0151506954771417"><ele>124.0</ele><time>2026-04-19T12:59:31Z</time></trkpt><trkpt lat="47.66205486920019" lon="1.0148627746711854"><ele>123.0</ele><time>2026-04-19T12:59:32Z</time></trkpt><trkpt lat="47.662084743393315" lon="1.0145701760013386"><ele>122.0</ele><time>2026-04-19T12:59:33Z</time></trkpt><trkpt lat="47.66209655076611" lon="1.014241285401906"><ele>122.0</ele><time>2026-04-19T12:59:34Z</time></trkpt><trkpt lat="47.66210673642669" lon="1.013947118941175"><ele>122.0</ele><time>2026-04-19T12:59:35Z</time></trkpt><trkpt lat="47.66211420361605" lon="1.0136936831426444"><ele>122.0</ele><time>2026-04-19T12:59:36Z</time></trkpt><trkpt lat="47.662110460262646" lon="1.0134769012879847"><ele>122.0</ele><time>2026-04-19T12:59:37Z</time></trkpt><trkpt lat="47.662146478282715" lon="1.0132557231208488"><ele>122.0</ele><time>2026-04-19T12:59:38Z</time></trkpt><trkpt lat="47.66222020959413" lon="1.0130543468959219"><ele>122.0</ele><time>2026-04-19T12:59:39Z</time></trkpt><trkpt lat="47.662348763277585" lon="1.0129107795418908"><ele>122.0</ele><time>2026-04-19T12:59:40Z</time></trkpt><trkpt lat="47.662480118927824" lon="1.0127665673320487"><ele>122.0</ele><time>2026-04-19T12:59:41Z</time></trkpt><trkpt lat="47.662642916857436" lon="1.0126272772801035"><ele>122.0</ele><time>2026-04-19T12:59:42Z</time></trkpt><trkpt lat="47.662819654228336" lon="1.0124637845625404"><ele>121.5</ele><time>2026-04-19T12:59:43Z</time></trkpt><trkpt lat="47.66301541958868" lon="1.0122985387912447"><ele>121.0</ele><time>2026-04-19T12:59:44Z</time></trkpt><trkpt lat="47.663222550680175" lon="1.0121607307498528"><ele>121.0</ele><time>2026-04-19T12:59:45Z</time></trkpt><trkpt lat="47.6634033361534" lon="1.0120131799912049"><ele>121.0</ele><time>2026-04-19T12:59:46Z</time></trkpt><trkpt lat="47.663552279041326" lon="1.0118393657641738"><ele>121.0</ele><time>2026-04-19T12:59:47Z</time></trkpt><trkpt lat="47.66369209974227" lon="1.0116639059184944"><ele>120.66666666666667</ele><time>2026-04-19T12:59:48Z</time></trkpt><trkpt lat="47.66381864218157" lon="1.0114371178561106"><ele>120.33333333333334</ele><time>2026-04-19T12:59:49Z</time></trkpt><trkpt lat="47.66392154012436" lon="1.0111824398035816"><ele>120.0</ele><time>2026-04-19T12:59:50Z</time></trkpt><trkpt lat="47.664002284287626" lon="1.0109107774792825"><ele>120.33333333333334</ele><time>2026-04-19T12:59:51Z</time></trkpt><trkpt lat="47.66406852225589" lon="1.0106462776938654"><ele>120.66666666666667</ele><time>2026-04-19T12:59:52Z</time></trkpt><trkpt lat="47.66413528591365" lon="1.0103592826261845"><ele>121.0</ele><time>2026-04-19T12:59:53Z</time></trkpt><trkpt lat="47.664226159667514" lon="1.010073161353743"><ele>121.33333333333334</ele><time>2026-04-19T12:59:54Z</time></trkpt><trkpt lat="47.66430321717668" lon="1.0098171492408679"><ele>121.66666666666666</ele><time>2026-04-19T12:59:55Z</time></trkpt><trkpt lat="47.66438906070077" lon="1.0095701421150578"><ele>122.0</ele><time>2026-04-19T12:59:56Z</time></trkpt><trkpt lat="47.664477577022645" lon="1.0093320771135634"><ele>121.66666666666666</ele><time>2026-04-19T12:59:57Z</time></trkpt><trkpt lat="47.66456931748705" lon="1.0090924197486801"><ele>121.33333333333334</ele><time>2026-04-19T12:59:58Z</time></trkpt><trkpt lat="47.66465896268577" lon="1.0088582359760505"><ele>121.0</ele><time>2026-04-19T12:59:59Z</time></trkpt><trkpt lat="47.664736972480064" lon="1.0086148574564082"><ele>121.0</ele><time>2026-04-19T13:00:00Z</time></trkpt><trkpt lat="47.664826642533974" lon="1.008382659011917"><ele>121.0</ele><time>2026-04-19T13:00:01Z</time></trkpt><trkpt lat="47.664916340482776" lon="1.0081507925532356"><ele>121.0</ele><time>2026-04-19T13:00:02Z</time></trkpt><trkpt lat="47.66501546977658" lon="1.0078929060346828"><ele>121.0</ele><time>2026-04-19T13:00:03Z</time></trkpt><trkpt lat="47.665123102074126" lon="1.0076336759421454"><ele>121.0</ele><time>2026-04-19T13:00:04Z</time></trkpt><trkpt lat="47.66522826913802" lon="1.0074011389738764"><ele>121.0</ele><time>2026-04-19T13:00:05Z</time></trkpt><trkpt lat="47.66534779448011" lon="1.0072205527354054"><ele>120.33333333333334</ele><time>2026-04-19T13:00:06Z</time></trkpt><trkpt lat="47.665458967548375" lon="1.0070532588081058"><ele>119.66666666666666</ele><time>2026-04-19T13:00:07Z</time></trkpt><trkpt lat="47.665588672163054" lon="1.0069095696995491"><ele>119.0</ele><time>2026-04-19T13:00:08Z</time></trkpt><trkpt lat="47.66575539507408" lon="1.0068047961295912"><ele>119.0</ele><time>2026-04-19T13:00:09Z</time></trkpt><trkpt lat="47.66594932145449" lon="1.0067571222413243"><ele>119.0</ele><time>2026-04-19T13:00:10Z</time></trkpt><trkpt lat="47.66614716955204" lon="1.006719107036962"><ele>119.0</ele><time>2026-04-19T13:00:11Z</time></trkpt><trkpt lat="47.66635773051621" lon="1.0066676415274454"><ele>118.66666666666666</ele><time>2026-04-19T13:00:12Z</time></trkpt><trkpt lat="47.666569024565895" lon="1.0066282278201746"><ele>118.33333333333334</ele><time>2026-04-19T13:00:13Z</time></trkpt><trkpt lat="47.66674992473455" lon="1.0065783358426832"><ele>118.0</ele><time>2026-04-19T13:00:14Z</time></trkpt><trkpt lat="47.66691265646014" lon="1.006505930520416"><ele>117.33333333333334</ele><time>2026-04-19T13:00:15Z</time></trkpt><trkpt lat="47.66708047062592" lon="1.0063920290724595"><ele>116.66666666666666</ele><time>2026-04-19T13:00:16Z</time></trkpt><trkpt lat="47.667246325914306" lon="1.0062289995116795"><ele>116.0</ele><time>2026-04-19T13:00:17Z</time></trkpt><trkpt lat="47.667387073077194" lon="1.0060492005588733"><ele>116.0</ele><time>2026-04-19T13:00:18Z</time></trkpt><trkpt lat="47.66749050848854" lon="1.0058538513067776"><ele>116.0</ele><time>2026-04-19T13:00:19Z</time></trkpt><trkpt lat="47.66756990122943" lon="1.00560693895141"><ele>116.0</ele><time>2026-04-19T13:00:20Z</time></trkpt><trkpt lat="47.6676354006697" lon="1.0053204090785774"><ele>116.0</ele><time>2026-04-19T13:00:21Z</time></trkpt><trkpt lat="47.66772987133371" lon="1.0050293929289076"><ele>116.0</ele><time>2026-04-19T13:00:22Z</time></trkpt><trkpt lat="47.667811340120124" lon="1.0047434114502614"><ele>116.0</ele><time>2026-04-19T13:00:23Z</time></trkpt><trkpt lat="47.66788069745223" lon="1.004491684438929"><ele>116.0</ele><time>2026-04-19T13:00:24Z</time></trkpt><trkpt lat="47.66793743367376" lon="1.0042862683202272"><ele>116.0</ele><time>2026-04-19T13:00:25Z</time></trkpt><trkpt lat="47.6679942961253" lon="1.0041095963441238"><ele>116.0</ele><time>2026-04-19T13:00:26.001Z</time></trkpt><trkpt lat="47.66806312654145" lon="1.0039625073286684"><ele>116.0</ele><time>2026-04-19T13:00:27.001Z</time></trkpt><trkpt lat="47.668144468860454" lon="1.0038322779458186"><ele>116.0</ele><time>2026-04-19T13:00:28.001Z</time></trkpt><trkpt lat="47.668274894625114" lon="1.0038184684754679"><ele>116.0</ele><time>2026-04-19T13:00:29.001Z</time></trkpt><trkpt lat="47.66840842128473" lon="1.0037539328599443"><ele>116.0</ele><time>2026-04-19T13:00:30.001Z</time></trkpt><trkpt lat="47.668541900109" lon="1.00372156230697"><ele>116.0</ele><time>2026-04-19T13:00:31.001Z</time></trkpt><trkpt lat="47.668677260982825" lon="1.0036762697063766"><ele>115.66666666666666</ele><time>2026-04-19T13:00:32.001Z</time></trkpt><trkpt lat="47.66882896289213" lon="1.0036320606410278"><ele>115.33333333333334</ele><time>2026-04-19T13:00:33.001Z</time></trkpt><trkpt lat="47.66898275877845" lon="1.003587211823117"><ele>115.0</ele><time>2026-04-19T13:00:34.001Z</time></trkpt><trkpt lat="47.66913842650485" lon="1.0035466255332535"><ele>115.0</ele><time>2026-04-19T13:00:35.001Z</time></trkpt><trkpt lat="47.66930002394974" lon="1.0035114127670248"><ele>115.0</ele><time>2026-04-19T13:00:36.001Z</time></trkpt><trkpt lat="47.66946086111572" lon="1.003479984155497"><ele>115.0</ele><time>2026-04-19T13:00:37.001Z</time></trkpt><trkpt lat="47.66962405760473" lon="1.0034519375834283"><ele>114.66666666666667</ele><time>2026-04-19T13:00:38.001Z</time></trkpt><trkpt lat="47.66978248501945" lon="1.0034254915729381"><ele>114.33333333333334</ele><time>2026-04-19T13:00:39.001Z</time></trkpt><trkpt lat="47.66994055466248" lon="1.0034072131531742"><ele>114.0</ele><time>2026-04-19T13:00:40.001Z</time></trkpt><trkpt lat="47.67009446749615" lon="1.0033978191848147"><ele>114.0</ele><time>2026-04-19T13:00:41.001Z</time></trkpt><trkpt lat="47.67025332189822" lon="1.003385138965028"><ele>114.0</ele><time>2026-04-19T13:00:42.001Z</time></trkpt><trkpt lat="47.67041367619398" lon="1.0033718290577505"><ele>114.0</ele><time>2026-04-19T13:00:43.001Z</time></trkpt><trkpt lat="47.670577414214925" lon="1.003359118216446"><ele>115.33333333333334</ele><time>2026-04-19T13:00:44.001Z</time></trkpt><trkpt lat="47.67074083104532" lon="1.0033483831849799"><ele>116.66666666666667</ele><time>2026-04-19T13:00:45.001Z</time></trkpt><trkpt lat="47.67090354684016" lon="1.0033392812295747"><ele>118.0</ele><time>2026-04-19T13:00:46.001Z</time></trkpt><trkpt lat="47.67106842242151" lon="1.0033274527759035"><ele>119.0</ele><time>2026-04-19T13:00:47.001Z</time></trkpt><trkpt lat="47.67124451097369" lon="1.003317748610104"><ele>120.0</ele><time>2026-04-19T13:00:48.001Z</time></trkpt><trkpt lat="47.671415751923085" lon="1.003301358459066"><ele>121.0</ele><time>2026-04-19T13:00:49Z</time></trkpt><trkpt lat="47.67155701509162" lon="1.0032909725523445"><ele>121.0</ele><time>2026-04-19T13:00:50Z</time></trkpt><trkpt lat="47.67168901455071" lon="1.0032705083108575"><ele>121.0</ele><time>2026-04-19T13:00:51Z</time></trkpt><trkpt lat="47.6717853408097" lon="1.0032167902049656"><ele>121.0</ele><time>2026-04-19T13:00:52Z</time></trkpt><trkpt lat="47.67186479182231" lon="1.0031355720699737"><ele>121.0</ele><time>2026-04-19T13:00:53Z</time></trkpt><trkpt lat="47.67191377089239" lon="1.0029784584178694"><ele>121.0</ele><time>2026-04-19T13:00:54Z</time></trkpt><trkpt lat="47.67197470977813" lon="1.0027934548443216"><ele>120.75</ele><time>2026-04-19T13:00:55Z</time></trkpt><trkpt lat="47.6720325547934" lon="1.0026120673777312"><ele>120.5</ele><time>2026-04-19T13:00:56Z</time></trkpt><trkpt lat="47.672083981288324" lon="1.0024474470820826"><ele>120.25</ele><time>2026-04-19T13:00:57Z</time></trkpt><trkpt lat="47.67217303426018" lon="1.002325921983714"><ele>120.0</ele><time>2026-04-19T13:00:58Z</time></trkpt><trkpt lat="47.672287124158174" lon="1.0022495225198176"><ele>120.0</ele><time>2026-04-19T13:00:59Z</time></trkpt><trkpt lat="47.672424659948355" lon="1.0022394082341908"><ele>120.0</ele><time>2026-04-19T13:01:00Z</time></trkpt><trkpt lat="47.67257753713691" lon="1.0022049311489636"><ele>120.0</ele><time>2026-04-19T13:01:01Z</time></trkpt><trkpt lat="47.67275461535339" lon="1.0021813860740794"><ele>119.66666666666666</ele><time>2026-04-19T13:01:02Z</time></trkpt><trkpt lat="47.67296401716061" lon="1.0021469714408242"><ele>119.33333333333333</ele><time>2026-04-19T13:01:03Z</time></trkpt><trkpt lat="47.673175329399164" lon="1.002108334322633"><ele>119.0</ele><time>2026-04-19T13:01:04Z</time></trkpt><trkpt lat="47.67340209838216" lon="1.0020732118101747"><ele>119.33333333333333</ele><time>2026-04-19T13:01:05Z</time></trkpt><trkpt lat="47.673639594189936" lon="1.002040263481713"><ele>119.66666666666666</ele><time>2026-04-19T13:01:06Z</time></trkpt><trkpt lat="47.673845931719605" lon="1.0020046539601561"><ele>120.0</ele><time>2026-04-19T13:01:07Z</time></trkpt><trkpt lat="47.674036528923224" lon="1.0019732847243554"><ele>120.0</ele><time>2026-04-19T13:01:08Z</time></trkpt><trkpt lat="47.67420601386012" lon="1.001945127347191"><ele>120.0</ele><time>2026-04-19T13:01:09Z</time></trkpt><trkpt lat="47.674374520849526" lon="1.0019201559880009"><ele>120.0</ele><time>2026-04-19T13:01:10Z</time></trkpt><trkpt lat="47.674521477731794" lon="1.0018985449568625"><ele>120.0</ele><time>2026-04-19T13:01:11Z</time></trkpt><trkpt lat="47.67465909795719" lon="1.0018776751331664"><ele>120.0</ele><time>2026-04-19T13:01:12Z</time></trkpt><trkpt lat="47.67478210308413" lon="1.0018586636672089"><ele>120.0</ele><time>2026-04-19T13:01:13Z</time></trkpt><trkpt lat="47.67489812927985" lon="1.0018514139477024"><ele>120.0</ele><time>2026-04-19T13:01:14Z</time></trkpt><trkpt lat="47.675013918262344" lon="1.0018842491452105"><ele>120.0</ele><time>2026-04-19T13:01:15Z</time></trkpt><trkpt lat="47.67513545537879" lon="1.0019401316172036"><ele>120.0</ele><time>2026-04-19T13:01:16Z</time></trkpt><trkpt lat="47.675255172071175" lon="1.0019152800659914"><ele>120.0</ele><time>2026-04-19T13:01:17Z</time></trkpt><trkpt lat="47.67537883464525" lon="1.001852539075992"><ele>120.0</ele><time>2026-04-19T13:01:18Z</time></trkpt><trkpt lat="47.67550813898014" lon="1.0017661690301631"><ele>120.25</ele><time>2026-04-19T13:01:19Z</time></trkpt><trkpt lat="47.675637545365824" lon="1.0016731209432117"><ele>120.5</ele><time>2026-04-19T13:01:20Z</time></trkpt><trkpt lat="47.67577873480654" lon="1.0016106570883192"><ele>120.75</ele><time>2026-04-19T13:01:21Z</time></trkpt><trkpt lat="47.67593048662685" lon="1.0015961125858284"><ele>121.0</ele><time>2026-04-19T13:01:22Z</time></trkpt><trkpt lat="47.676084622811786" lon="1.001589497355461"><ele>120.75</ele><time>2026-04-19T13:01:23Z</time></trkpt><trkpt lat="47.67622367994571" lon="1.001568925992822"><ele>120.5</ele><time>2026-04-19T13:01:24Z</time></trkpt><trkpt lat="47.676366526278386" lon="1.0015552565551293"><ele>120.25</ele><time>2026-04-19T13:01:25Z</time></trkpt><trkpt lat="47.676512622234675" lon="1.0015414432858614"><ele>120.0</ele><time>2026-04-19T13:01:26Z</time></trkpt><trkpt lat="47.67665819002975" lon="1.001526500361801"><ele>120.0</ele><time>2026-04-19T13:01:27Z</time></trkpt><trkpt lat="47.6768057686267" lon="1.0015138835491362"><ele>120.0</ele><time>2026-04-19T13:01:28Z</time></trkpt><trkpt lat="47.67695513112089" lon="1.0015013537341753"><ele>120.0</ele><time>2026-04-19T13:01:29Z</time></trkpt><trkpt lat="47.67710338580927" lon="1.0014895176926784"><ele>120.0</ele><time>2026-04-19T13:01:30Z</time></trkpt><trkpt lat="47.67724995745574" lon="1.0014799984312324"><ele>120.25</ele><time>2026-04-19T13:01:31Z</time></trkpt><trkpt lat="47.6773927845452" lon="1.0014699750509783"><ele>120.5</ele><time>2026-04-19T13:01:32Z</time></trkpt><trkpt lat="47.67753815918532" lon="1.0014604059069894"><ele>120.75</ele><time>2026-04-19T13:01:33Z</time></trkpt><trkpt lat="47.67767985714166" lon="1.0014488078025239"><ele>121.0</ele><time>2026-04-19T13:01:34Z</time></trkpt><trkpt lat="47.67782301844174" lon="1.0014370639584853"><ele>121.0</ele><time>2026-04-19T13:01:35Z</time></trkpt><trkpt lat="47.67796147288479" lon="1.0014244130241583"><ele>121.0</ele><time>2026-04-19T13:01:36Z</time></trkpt><trkpt lat="47.67810002157348" lon="1.0014158613136717"><ele>121.0</ele><time>2026-04-19T13:01:37Z</time></trkpt><trkpt lat="47.67824457595352" lon="1.0014060768048902"><ele>121.0</ele><time>2026-04-19T13:01:38Z</time></trkpt><trkpt lat="47.6784005654737" lon="1.0013947944060824"><ele>121.0</ele><time>2026-04-19T13:01:39Z</time></trkpt><trkpt lat="47.67857273240948" lon="1.0013826305001559"><ele>121.0</ele><time>2026-04-19T13:01:40Z</time></trkpt><trkpt lat="47.67875200721375" lon="1.0013651936453436"><ele>121.0</ele><time>2026-04-19T13:01:41Z</time></trkpt><trkpt lat="47.67891874004583" lon="1.001353227190148"><ele>121.0</ele><time>2026-04-19T13:01:42Z</time></trkpt><trkpt lat="47.67908135308266" lon="1.0013389328735076"><ele>121.0</ele><time>2026-04-19T13:01:43Z</time></trkpt><trkpt lat="47.67924418491734" lon="1.0013306811890084"><ele>121.0</ele><time>2026-04-19T13:01:44Z</time></trkpt><trkpt lat="47.67940962941816" lon="1.001331526065945"><ele>121.0</ele><time>2026-04-19T13:01:45Z</time></trkpt><trkpt lat="47.679595799787975" lon="1.0013614821198797"><ele>121.0</ele><time>2026-04-19T13:01:46Z</time></trkpt><trkpt lat="47.6797933444574" lon="1.0014148575251618"><ele>121.0</ele><time>2026-04-19T13:01:47Z</time></trkpt><trkpt lat="47.67999301131733" lon="1.0014863723007874"><ele>121.0</ele><time>2026-04-19T13:01:48Z</time></trkpt><trkpt lat="47.68020295924443" lon="1.0015673265986145"><ele>121.0</ele><time>2026-04-19T13:01:49Z</time></trkpt><trkpt lat="47.6803831696491" lon="1.001652524326724"><ele>121.0</ele><time>2026-04-19T13:01:50Z</time></trkpt><trkpt lat="47.68055250888891" lon="1.001740758674648"><ele>120.0</ele><time>2026-04-19T13:01:51Z</time></trkpt><trkpt lat="47.6807206383498" lon="1.0018371892186155"><ele>119.0</ele><time>2026-04-19T13:01:52Z</time></trkpt><trkpt lat="47.68088993578197" lon="1.0019356906251675"><ele>118.0</ele><time>2026-04-19T13:01:53Z</time></trkpt><trkpt lat="47.681052430498006" lon="1.00203035722319"><ele>118.0</ele><time>2026-04-19T13:01:54Z</time></trkpt><trkpt lat="47.68121489894944" lon="1.0021251279981853"><ele>118.0</ele><time>2026-04-19T13:01:55Z</time></trkpt><trkpt lat="47.68137935344558" lon="1.002223532838155"><ele>118.0</ele><time>2026-04-19T13:01:56Z</time></trkpt><trkpt lat="47.68154996364586" lon="1.002322515648877"><ele>118.0</ele><time>2026-04-19T13:01:57Z</time></trkpt><trkpt lat="47.68173904641178" lon="1.0024215292074814"><ele>118.0</ele><time>2026-04-19T13:01:58Z</time></trkpt><trkpt lat="47.68193498398487" lon="1.0025332856501485"><ele>118.0</ele><time>2026-04-19T13:01:59Z</time></trkpt><trkpt lat="47.68213773201317" lon="1.0026988509036325"><ele>117.66666666666667</ele><time>2026-04-19T13:02:00Z</time></trkpt><trkpt lat="47.682330782712704" lon="1.0028903196988759"><ele>117.33333333333334</ele><time>2026-04-19T13:02:01Z</time></trkpt><trkpt lat="47.68251222216386" lon="1.003050843160391"><ele>117.0</ele><time>2026-04-19T13:02:02Z</time></trkpt><trkpt lat="47.682675148350114" lon="1.0031872041343797"><ele>117.0</ele><time>2026-04-19T13:02:03Z</time></trkpt><trkpt lat="47.6828288591928" lon="1.003313951996038"><ele>117.0</ele><time>2026-04-19T13:02:04Z</time></trkpt><trkpt lat="47.68298523749563" lon="1.0034451795379586"><ele>117.0</ele><time>2026-04-19T13:02:05Z</time></trkpt><trkpt lat="47.683156222834135" lon="1.003583143883063"><ele>116.66666666666666</ele><time>2026-04-19T13:02:06Z</time></trkpt><trkpt lat="47.68333580873349" lon="1.0037095665692135"><ele>116.33333333333333</ele><time>2026-04-19T13:02:07Z</time></trkpt><trkpt lat="47.68352563892791" lon="1.0038463936330464"><ele>116.0</ele><time>2026-04-19T13:02:08Z</time></trkpt><trkpt lat="47.6837090261625" lon="1.0040052212120953"><ele>116.33333333333333</ele><time>2026-04-19T13:02:09Z</time></trkpt><trkpt lat="47.68389380350804" lon="1.0041826696524834"><ele>116.66666666666666</ele><time>2026-04-19T13:02:10Z</time></trkpt><trkpt lat="47.68405021696719" lon="1.0043587831428868"><ele>117.0</ele><time>2026-04-19T13:02:11Z</time></trkpt><trkpt lat="47.68420200046329" lon="1.0045559011230627"><ele>117.0</ele><time>2026-04-19T13:02:12Z</time></trkpt><trkpt lat="47.684347492695736" lon="1.0047743720836526"><ele>117.0</ele><time>2026-04-19T13:02:13Z</time></trkpt><trkpt lat="47.684493907477574" lon="1.0049920363821485"><ele>117.0</ele><time>2026-04-19T13:02:14Z</time></trkpt><trkpt lat="47.6846265919683" lon="1.0051799399322905"><ele>116.66666666666666</ele><time>2026-04-19T13:02:15Z</time></trkpt><trkpt lat="47.68474502822519" lon="1.0053451284679993"><ele>116.33333333333333</ele><time>2026-04-19T13:02:16Z</time></trkpt><trkpt lat="47.6848558244981" lon="1.0054961056637053"><ele>116.0</ele><time>2026-04-19T13:02:17Z</time></trkpt><trkpt lat="47.684959514729854" lon="1.0056428852508064"><ele>116.0</ele><time>2026-04-19T13:02:18Z</time></trkpt><trkpt lat="47.68505638155324" lon="1.0057738170297117"><ele>116.0</ele><time>2026-04-19T13:02:19Z</time></trkpt><trkpt lat="47.68515089436977" lon="1.0058934601443077"><ele>116.0</ele><time>2026-04-19T13:02:20Z</time></trkpt><trkpt lat="47.685231886273016" lon="1.0060061383345862"><ele>116.0</ele><time>2026-04-19T13:02:21Z</time></trkpt><trkpt lat="47.68531056875937" lon="1.0061183255277564"><ele>116.0</ele><time>2026-04-19T13:02:22Z</time></trkpt><trkpt lat="47.685381885158556" lon="1.0062315727577071"><ele>116.0</ele><time>2026-04-19T13:02:23Z</time></trkpt><trkpt lat="47.68544956770531" lon="1.0063682387408786"><ele>116.0</ele><time>2026-04-19T13:02:24Z</time></trkpt><trkpt lat="47.68550416413137" lon="1.0065051357851222"><ele>116.0</ele><time>2026-04-19T13:02:25Z</time></trkpt><trkpt lat="47.68554392379694" lon="1.0066646895963725"><ele>116.0</ele><time>2026-04-19T13:02:26Z</time></trkpt><trkpt lat="47.68555708861695" lon="1.0068265501928046"><ele>115.75</ele><time>2026-04-19T13:02:27Z</time></trkpt><trkpt lat="47.685523721017674" lon="1.0070053661116165"><ele>115.5</ele><time>2026-04-19T13:02:28Z</time></trkpt><trkpt lat="47.685448192443715" lon="1.0071823686647248"><ele>115.25</ele><time>2026-04-19T13:02:29Z</time></trkpt><trkpt lat="47.68535052733024" lon="1.0074057460334724"><ele>115.0</ele><time>2026-04-19T13:02:30Z</time></trkpt><trkpt lat="47.68529605220089" lon="1.0076494099335658"><ele>115.75</ele><time>2026-04-19T13:02:31Z</time></trkpt><trkpt lat="47.68525999106397" lon="1.0078544897902721"><ele>116.5</ele><time>2026-04-19T13:02:32.001Z</time></trkpt><trkpt lat="47.685233075768146" lon="1.0080385678443144"><ele>117.25</ele><time>2026-04-19T13:02:33.001Z</time></trkpt><trkpt lat="47.685244849526555" lon="1.0082042933759843"><ele>118.0</ele><time>2026-04-19T13:02:34.001Z</time></trkpt><trkpt lat="47.68528821880942" lon="1.008368737882551"><ele>118.0</ele><time>2026-04-19T13:02:35.001Z</time></trkpt><trkpt lat="47.68537656459558" lon="1.008542452222833"><ele>118.0</ele><time>2026-04-19T13:02:36.001Z</time></trkpt><trkpt lat="47.68551061630874" lon="1.0087468741470162"><ele>118.0</ele><time>2026-04-19T13:02:37.001Z</time></trkpt><trkpt lat="47.68565752929404" lon="1.0089832111384809"><ele>118.0</ele><time>2026-04-19T13:02:38.001Z</time></trkpt><trkpt lat="47.685799690920554" lon="1.0092404668805832"><ele>118.0</ele><time>2026-04-19T13:02:39.001Z</time></trkpt><trkpt lat="47.68592425968367" lon="1.0094854862210516"><ele>118.0</ele><time>2026-04-19T13:02:40.001Z</time></trkpt><trkpt lat="47.6860293868212" lon="1.0096984353727092"><ele>118.0</ele><time>2026-04-19T13:02:41.001Z</time></trkpt><trkpt lat="47.68611233815453" lon="1.0098935563710878"><ele>118.0</ele><time>2026-04-19T13:02:42.001Z</time></trkpt><trkpt lat="47.686184034288445" lon="1.0100825386618333"><ele>118.0</ele><time>2026-04-19T13:02:43.001Z</time></trkpt><trkpt lat="47.68623896857462" lon="1.0102313289358535"><ele>118.0</ele><time>2026-04-19T13:02:44.001Z</time></trkpt><trkpt lat="47.68628255936641" lon="1.010361656113747"><ele>118.0</ele><time>2026-04-19T13:02:45.001Z</time></trkpt><trkpt lat="47.68631879675916" lon="1.010464239074632"><ele>118.00000000000001</ele><time>2026-04-19T13:02:46.001Z</time></trkpt><trkpt lat="47.686357459203506" lon="1.0106188271094936"><ele>118.00000000000001</ele><time>2026-04-19T13:02:48.001Z</time></trkpt><trkpt lat="47.6862509118132" lon="1.0107141636364487"><ele>118.0</ele><time>2026-04-19T13:02:49.001Z</time></trkpt><trkpt lat="47.68616268657079" lon="1.0108653907627274"><ele>118.0</ele><time>2026-04-19T13:02:50.001Z</time></trkpt><trkpt lat="47.68606273516954" lon="1.0110464021350567"><ele>117.66666666666667</ele><time>2026-04-19T13:02:51.001Z</time></trkpt><trkpt lat="47.68595349901535" lon="1.0112457974233227"><ele>117.33333333333334</ele><time>2026-04-19T13:02:52.001Z</time></trkpt><trkpt lat="47.685845068198105" lon="1.0114389363763208"><ele>117.0</ele><time>2026-04-19T13:02:53.001Z</time></trkpt><trkpt lat="47.685751840754875" lon="1.01159428487692"><ele>117.19999999999999</ele><time>2026-04-19T13:02:54.001Z</time></trkpt><trkpt lat="47.68566510002832" lon="1.0117244620890045"><ele>117.39999999999999</ele><time>2026-04-19T13:02:55Z</time></trkpt><trkpt lat="47.685583936027626" lon="1.011838484014957"><ele>117.60000000000001</ele><time>2026-04-19T13:02:56Z</time></trkpt><trkpt lat="47.68550444845985" lon="1.0119349235430286"><ele>117.80000000000001</ele><time>2026-04-19T13:02:57Z</time></trkpt><trkpt lat="47.6854352620276" lon="1.0120208645302335"><ele>118.0</ele><time>2026-04-19T13:02:58Z</time></trkpt><trkpt lat="47.68537756155299" lon="1.0121074020761327"><ele>118.0</ele><time>2026-04-19T13:02:59Z</time></trkpt><trkpt lat="47.68532526290765" lon="1.0121856226890684"><ele>118.00000000000001</ele><time>2026-04-19T13:03:00Z</time></trkpt><trkpt lat="47.68526103287741" lon="1.0123417433231006"><ele>118.00000000000001</ele><time>2026-04-19T13:03:02Z</time></trkpt><trkpt lat="47.68521909544526" lon="1.0124580022367584"><ele>118.0</ele><time>2026-04-19T13:03:04Z</time></trkpt><trkpt lat="47.68530570605477" lon="1.0125696320834288"><ele>118.0</ele><time>2026-04-19T13:03:05Z</time></trkpt><trkpt lat="47.68536756256544" lon="1.012633827264062"><ele>118.0</ele><time>2026-04-19T13:03:07Z</time></trkpt><trkpt lat="47.685447901917755" lon="1.0126091543425786"><ele>118.0</ele><time>2026-04-19T13:03:19Z</time></trkpt></trkseg></trk></gpx>